Darstellungsparameter: Aktuell verwendete Einstellungen:
Skalierung der Graphiken ... ?
xyx+y,   Skalierungsfaktor:      Skalierung: Modus: x, Faktor: 1
Darstellungszeitraum ... ?
Vom - - bis: - -   Zeitraum: 17.11.2011 - 30.11.2011
Min/Max/Avg-Anzeige ... ?
Zeige MMA aktuell
Zeige MMA Monat
Zeige MMA alles
Zeige --A aktuell
Zeige --A Monat
Zeige --A alles
Keine MMA-Anzeige
MMA:
Average (ber die Originaldaten)
MMA-Basis: 17.11.2011 - 30.11.2011
Quicknavigation für Darstellung... ?
Tage:      1T, 2T, 3T, 5T -1T -2T -3T -5T +1T +2T +3T +5T
Wochen: 1W, 2W, 3W -1W -2W -3W +1W +2W +3W
Monate: 1M, 3M, 6M -1M -3M -6M +1M +3M +6M
Jahre:    1J, 3J, 5J, 10J -1J -3J -5J -10J +1J +3J +5J +10J
Nutze für die Darstellung ... ?
Originaldaten oder Mittelwerte auf ...
Stundenbasis Tagesbasis Wochenbasis
Monatsbasis Jahresbasis      Datenbasis: Original-Daten
Darstellen als:
Statistik (Auto) Statistik J:M      Darstellung:
Zur Graphik,    zurück zur Übersicht aller Sensoren.
 
Tabellarische Datenbersicht: ?
 
Sensor: Nr:Datum:Temp:Abs-Feuchte:Windchill:Wind:
Aussen-T/F 1 17-11-2011 00:03:01 0.9 C 4.85 g/m*3 0.9 C 0 km/h
2 17-11-2011 00:15:01 0.9 C 4.85 g/m*3 0.9 C 0 km/h
3 17-11-2011 00:27:01 1.5 C 4.99 g/m*3 1.5 C 0 km/h
4 17-11-2011 00:38:02 1 C 4.83 g/m*3 1 C 0 km/h
5 17-11-2011 00:51:01 1 C 4.83 g/m*3 1 C 0 km/h
6 17-11-2011 01:02:02 1 C 4.83 g/m*3 1 C 0 km/h
7 17-11-2011 01:14:02 1 C 4.83 g/m*3 1 C 0 km/h
8 17-11-2011 01:27:01 1 C 4.83 g/m*3 1 C 0 km/h
9 17-11-2011 01:38:02 1 C 4.83 g/m*3 1 C 0 km/h
10 17-11-2011 01:51:01 1 C 4.83 g/m*3 1 C 0 km/h
11 17-11-2011 02:14:02 1 C 4.83 g/m*3 1 C 0 km/h
12 17-11-2011 02:15:01 1 C 4.78 g/m*3 1 C 0 km/h
13 17-11-2011 02:27:01 1 C 4.78 g/m*3 1 C 0 km/h
14 17-11-2011 02:39:01 1 C 4.78 g/m*3 1 C 0 km/h
15 17-11-2011 02:51:03 1.1 C 4.81 g/m*3 1.1 C 0 km/h
16 17-11-2011 03:03:03 1.1 C 4.81 g/m*3 1.1 C 0 km/h
17 17-11-2011 03:15:03 1.2 C 4.79 g/m*3 1.2 C 0 km/h
18 17-11-2011 03:27:03 1.1 C 4.76 g/m*3 1.1 C 0 km/h
19 17-11-2011 03:39:01 1.1 C 4.76 g/m*3 1.1 C 0 km/h
20 17-11-2011 03:51:01 1.2 C 4.74 g/m*3 1.2 C 0 km/h
21 17-11-2011 04:03:02 1.2 C 4.68 g/m*3 1.2 C 0 km/h
22 17-11-2011 04:15:01 1.1 C 4.6 g/m*3 1.1 C 0 km/h
23 17-11-2011 04:27:01 1.1 C 4.55 g/m*3 1.1 C 0 km/h
24 17-11-2011 04:39:02 1.1 C 4.49 g/m*3 1.1 C 0 km/h
25 17-11-2011 04:51:01 1.1 C 4.49 g/m*3 1.1 C 0 km/h
Sensor: Nr:Datum:Temp:Abs-Feuchte:Windchill:Wind:
Aussen-T/F 26 17-11-2011 05:03:02 1.1 C 4.44 g/m*3 1.1 C 0 km/h
27 17-11-2011 05:15:01 1.1 C 4.39 g/m*3 1.1 C 0 km/h
28 17-11-2011 05:27:01 1.1 C 4.39 g/m*3 1.1 C 0 km/h
29 17-11-2011 05:39:02 1 C 4.36 g/m*3 1 C 0 km/h
30 17-11-2011 05:51:01 1 C 4.36 g/m*3 1 C 0 km/h
31 17-11-2011 06:03:02 1 C 4.31 g/m*3 1 C 0 km/h
32 17-11-2011 06:15:02 1 C 4.31 g/m*3 1 C 0 km/h
33 17-11-2011 06:27:02 0.9 C 4.33 g/m*3 0.9 C 0 km/h
34 17-11-2011 06:39:01 0.9 C 4.33 g/m*3 0.9 C 0 km/h
35 17-11-2011 06:51:02 1 C 4.36 g/m*3 1 C 0 km/h
36 17-11-2011 07:03:01 1 C 4.36 g/m*3 1 C 0 km/h
37 17-11-2011 07:15:02 1 C 4.36 g/m*3 1 C 0 km/h
38 17-11-2011 07:27:03 1.1 C 4.39 g/m*3 1.1 C 0 km/h
39 17-11-2011 07:39:01 1.1 C 4.39 g/m*3 1.1 C 0 km/h
40 17-11-2011 07:51:02 1.2 C 4.47 g/m*3 1.2 C 0 km/h
41 17-11-2011 08:03:02 1.4 C 4.53 g/m*3 1.4 C 0 km/h
42 17-11-2011 08:15:02 1.3 C 4.5 g/m*3 1.3 C 0 km/h
43 17-11-2011 08:27:02 1.4 C 4.53 g/m*3 1.4 C 0 km/h
44 17-11-2011 08:39:02 1.6 C 4.6 g/m*3 1.6 C 0 km/h
45 17-11-2011 08:51:01 1.8 C 4.66 g/m*3 1.8 C 0 km/h
46 17-11-2011 09:03:02 2.1 C 4.7 g/m*3 2.1 C 0 km/h
47 17-11-2011 09:15:01 2.2 C 4.68 g/m*3 2.2 C 0 km/h
48 17-11-2011 09:27:01 2.5 C 4.77 g/m*3 2.5 C 0 km/h
49 17-11-2011 09:39:02 2.6 C 4.8 g/m*3 2.6 C 0 km/h
50 17-11-2011 09:51:01 2.9 C 4.84 g/m*3 2.9 C 0 km/h
Sensor: Nr:Datum:Temp:Abs-Feuchte:Windchill:Wind:
Aussen-T/F 51 17-11-2011 10:03:02 3.1 C 4.79 g/m*3 3.1 C 0 km/h
52 17-11-2011 10:15:01 3.3 C 4.79 g/m*3 3.3 C 0 km/h
53 17-11-2011 10:27:01 3.1 C 4.67 g/m*3 3.1 C 0 km/h
54 17-11-2011 10:39:02 3.2 C 4.7 g/m*3 3.2 C 0 km/h
55 17-11-2011 10:51:01 3.6 C 4.77 g/m*3 3.6 C 0 km/h
56 17-11-2011 11:03:02 3.8 C 4.77 g/m*3 3.8 C 0 km/h
57 17-11-2011 11:15:02 4 C 4.7 g/m*3 4 C 0 km/h
58 17-11-2011 11:27:02 4.5 C 4.73 g/m*3 4.5 C 0 km/h
59 17-11-2011 11:39:01 4.8 C 4.69 g/m*3 4.8 C 0 km/h
60 17-11-2011 11:51:02 4.5 C 4.54 g/m*3 4.5 C 0 km/h
61 17-11-2011 12:03:01 3.8 C 4.58 g/m*3 3.8 C 0 km/h
62 17-11-2011 12:15:02 3.7 C 4.74 g/m*3 3.7 C 0 km/h
63 17-11-2011 12:27:02 4.2 C 4.9 g/m*3 4.2 C 0 km/h
64 17-11-2011 12:39:01 4.5 C 5 g/m*3 4.5 C 0 km/h
65 17-11-2011 12:51:03 5 C 4.82 g/m*3 5 C 0 km/h
66 17-11-2011 13:03:02 6 C 4.86 g/m*3 6 C 0 km/h
67 17-11-2011 13:15:02 6.1 C 4.75 g/m*3 6.1 C 0 km/h
68 17-11-2011 13:27:02 6.7 C 4.79 g/m*3 6.7 C 0 km/h
69 17-11-2011 13:39:03 6.9 C 4.85 g/m*3 6.9 C 0 km/h
70 17-11-2011 13:51:02 6.9 C 4.77 g/m*3 6.9 C 0 km/h
71 17-11-2011 14:03:02 7.2 C 4.71 g/m*3 7.2 C 0 km/h
72 17-11-2011 14:15:02 7.4 C 4.85 g/m*3 7.4 C 0 km/h
73 17-11-2011 14:27:02 7.3 C 4.82 g/m*3 7.3 C 0 km/h
74 17-11-2011 14:39:02 7.5 C 4.88 g/m*3 7.5 C 0 km/h
75 17-11-2011 14:51:02 7.6 C 4.99 g/m*3 7.6 C 0 km/h
Sensor: Nr:Datum:Temp:Abs-Feuchte:Windchill:Wind:
Aussen-T/F 76 17-11-2011 15:03:02 7.4 C 4.85 g/m*3 7.4 C 0 km/h
77 17-11-2011 15:15:02 7.3 C 4.98 g/m*3 7.3 C 0 km/h
78 17-11-2011 15:27:02 7.1 C 5.23 g/m*3 7.1 C 0 km/h
79 17-11-2011 15:39:02 6.9 C 5.39 g/m*3 6.9 C 0 km/h
80 17-11-2011 15:51:02 6.7 C 5.47 g/m*3 6.7 C 0 km/h
81 17-11-2011 16:03:02 6.5 C 5.47 g/m*3 6.5 C 0 km/h
82 17-11-2011 16:15:03 6.3 C 5.48 g/m*3 6.3 C 0 km/h
83 17-11-2011 16:27:03 6.1 C 5.48 g/m*3 6.1 C 0 km/h
84 17-11-2011 16:39:02 6.1 C 5.55 g/m*3 6.1 C 0 km/h
85 17-11-2011 16:51:02 5.9 C 5.62 g/m*3 5.9 C 0 km/h
86 17-11-2011 17:03:04 5.9 C 5.7 g/m*3 5.9 C 0 km/h
87 17-11-2011 17:15:02 5.9 C 5.7 g/m*3 5.9 C 0 km/h
88 17-11-2011 17:27:02 6.2 C 5.74 g/m*3 6.2 C 0 km/h
89 17-11-2011 17:39:02 6.1 C 5.7 g/m*3 6.1 C 0 km/h
90 17-11-2011 17:51:02 5.9 C 5.7 g/m*3 5.9 C 0 km/h
91 17-11-2011 18:03:02 5.9 C 5.7 g/m*3 5.9 C 0 km/h
92 17-11-2011 18:15:01 6 C 5.73 g/m*3 6 C 0 km/h
93 17-11-2011 18:27:01 6.1 C 5.7 g/m*3 6.1 C 0 km/h
94 17-11-2011 18:39:02 6.1 C 5.63 g/m*3 6.1 C 0 km/h
95 17-11-2011 18:51:02 6.1 C 5.7 g/m*3 6.1 C 0 km/h
96 17-11-2011 19:03:02 6.1 C 5.7 g/m*3 6.1 C 0 km/h
97 17-11-2011 19:15:02 6 C 5.66 g/m*3 6 C 0 km/h
98 17-11-2011 19:27:02 6.1 C 5.63 g/m*3 6.1 C 0 km/h
99 17-11-2011 19:39:02 6.1 C 5.63 g/m*3 6.1 C 0 km/h
100 17-11-2011 19:51:02 6.1 C 5.7 g/m*3 6.1 C 0 km/h
Sensor: Nr:Datum:Temp:Abs-Feuchte:Windchill:Wind:
Aussen-T/F 101 17-11-2011 20:03:02 6.2 C 5.74 g/m*3 6.2 C 0 km/h
102 17-11-2011 20:15:03 6.6 C 5.89 g/m*3 6.6 C 0 km/h
103 17-11-2011 20:27:03 6.7 C 5.77 g/m*3 6.7 C 0 km/h
104 17-11-2011 20:39:03 6.6 C 5.74 g/m*3 6.6 C 0 km/h
105 17-11-2011 20:51:02 6.5 C 5.77 g/m*3 6.5 C 0 km/h
106 17-11-2011 21:03:02 6.3 C 5.77 g/m*3 6.3 C 0 km/h
107 17-11-2011 21:15:02 6.3 C 5.85 g/m*3 6.3 C 0 km/h
108 17-11-2011 21:27:02 6.2 C 5.88 g/m*3 6.2 C 0 km/h
109 17-11-2011 21:39:02 6.2 C 5.96 g/m*3 6.2 C 0 km/h
110 17-11-2011 21:52:04 6 C 5.88 g/m*3 6 C 0 km/h
111 17-11-2011 22:04:04 6.1 C 5.99 g/m*3 6.1 C 0 km/h
112 17-11-2011 22:16:04 5.8 C 5.95 g/m*3 5.8 C 0 km/h
113 17-11-2011 22:28:04 5.8 C 5.95 g/m*3 5.8 C 0 km/h
114 17-11-2011 22:40:04 5.8 C 6.02 g/m*3 5.8 C 0 km/h
115 17-11-2011 22:52:05 5.7 C 6.05 g/m*3 5.7 C 0 km/h
116 17-11-2011 23:04:05 6 C 6.1 g/m*3 6 C 0 km/h
117 17-11-2011 23:16:05 6.4 C 6.26 g/m*3 6.4 C 0 km/h
118 17-11-2011 23:28:05 6.5 C 6.22 g/m*3 6.5 C 0 km/h
119 17-11-2011 23:40:05 6.5 C 6.15 g/m*3 6.5 C 0 km/h
120 17-11-2011 23:52:05 6.4 C 6.11 g/m*3 6.4 C 0 km/h
121 18-11-2011 00:04:05 6.3 C 6.14 g/m*3 6.3 C 0 km/h
122 18-11-2011 00:16:05 6.2 C 6.1 g/m*3 6.2 C 0 km/h
123 18-11-2011 00:28:05 6.2 C 6.18 g/m*3 6.2 C 0 km/h
124 18-11-2011 00:40:05 6.3 C 6.22 g/m*3 6.3 C 0 km/h
125 18-11-2011 00:52:05 6.6 C 6.42 g/m*3 6.6 C 0 km/h
Sensor: Nr:Datum:Temp:Abs-Feuchte:Windchill:Wind:
Aussen-T/F 126 18-11-2011 01:04:05 6.7 C 6.38 g/m*3 6.7 C 0 km/h
127 18-11-2011 01:16:05 6.8 C 6.5 g/m*3 6.8 C 0 km/h
128 18-11-2011 01:28:05 7 C 6.51 g/m*3 7 C 0 km/h
129 18-11-2011 01:40:05 6.9 C 6.54 g/m*3 6.9 C 0 km/h
130 18-11-2011 01:52:05 6.7 C 6.46 g/m*3 6.7 C 0 km/h
131 18-11-2011 02:04:05 6.7 C 6.46 g/m*3 6.7 C 0 km/h
132 18-11-2011 02:16:05 6.7 C 6.53 g/m*3 6.7 C 0 km/h
133 18-11-2011 02:28:05 6.6 C 6.49 g/m*3 6.6 C 0 km/h
134 18-11-2011 02:40:05 6.5 C 6.45 g/m*3 6.5 C 0 km/h
135 18-11-2011 02:52:05 6.5 C 6.45 g/m*3 6.5 C 0 km/h
136 18-11-2011 03:04:06 6.5 C 6.45 g/m*3 6.5 C 0 km/h
137 18-11-2011 03:16:06 6.4 C 6.41 g/m*3 6.4 C 0 km/h
138 18-11-2011 03:28:06 6.3 C 6.37 g/m*3 6.3 C 0 km/h
139 18-11-2011 03:40:06 6.4 C 6.41 g/m*3 6.4 C 0 km/h
140 18-11-2011 03:52:06 6.4 C 6.48 g/m*3 6.4 C 0 km/h
141 18-11-2011 04:04:06 6.3 C 6.44 g/m*3 6.3 C 0 km/h
142 18-11-2011 04:16:06 6.3 C 6.44 g/m*3 6.3 C 0 km/h
143 18-11-2011 04:28:06 6.4 C 6.48 g/m*3 6.4 C 0 km/h
144 18-11-2011 04:40:06 6.4 C 6.56 g/m*3 6.4 C 0 km/h
145 18-11-2011 04:52:06 6.5 C 6.6 g/m*3 6.5 C 0 km/h
146 18-11-2011 05:04:06 6.5 C 6.6 g/m*3 6.5 C 0 km/h
147 18-11-2011 05:16:06 6.4 C 6.63 g/m*3 6.4 C 0 km/h
148 18-11-2011 05:28:06 6.4 C 6.63 g/m*3 6.4 C 0 km/h
149 18-11-2011 05:40:06 6.4 C 6.63 g/m*3 6.4 C 0 km/h
150 18-11-2011 05:52:06 6.3 C 6.59 g/m*3 6.3 C 0 km/h
Sensor: Nr:Datum:Temp:Abs-Feuchte:Windchill:Wind:
Aussen-T/F 151 18-11-2011 06:04:06 6.2 C 6.55 g/m*3 6.2 C 0 km/h
152 18-11-2011 06:16:06 6.2 C 6.55 g/m*3 6.2 C 0 km/h
153 18-11-2011 06:28:06 6.2 C 6.55 g/m*3 6.2 C 0 km/h
154 18-11-2011 06:40:06 6.1 C 6.5 g/m*3 6.1 C 0 km/h
155 18-11-2011 06:52:06 6.2 C 6.55 g/m*3 6.2 C 0 km/h
156 18-11-2011 07:04:07 6.1 C 6.5 g/m*3 6.1 C 0 km/h
157 18-11-2011 07:16:04 6.2 C 6.62 g/m*3 6.2 C 0 km/h
158 18-11-2011 07:28:04 6.2 C 6.62 g/m*3 6.2 C 0 km/h
159 18-11-2011 07:40:04 6.2 C 6.62 g/m*3 6.2 C 0 km/h
160 18-11-2011 07:52:02 6.1 C 6.58 g/m*3 6.1 C 0 km/h
161 18-11-2011 08:04:02 6.2 C 6.62 g/m*3 6.2 C 0 km/h
162 18-11-2011 08:16:03 6.3 C 6.66 g/m*3 6.3 C 0 km/h
163 18-11-2011 08:28:03 6.4 C 6.71 g/m*3 6.4 C 0 km/h
164 18-11-2011 08:40:02 6.4 C 6.71 g/m*3 6.4 C 0 km/h
165 18-11-2011 08:52:02 6.6 C 6.79 g/m*3 6.6 C 0 km/h
166 18-11-2011 09:04:02 6.9 C 6.93 g/m*3 6.9 C 0 km/h
167 18-11-2011 09:16:02 7.1 C 6.94 g/m*3 7.1 C 0 km/h
168 18-11-2011 09:28:02 7.2 C 6.99 g/m*3 7.2 C 0 km/h
169 18-11-2011 09:40:02 7.4 C 7 g/m*3 7.4 C 0 km/h
170 18-11-2011 09:52:02 7.5 C 7.04 g/m*3 7.5 C 0 km/h
171 18-11-2011 10:04:02 7.7 C 7.05 g/m*3 7.7 C 0 km/h
172 18-11-2011 10:16:02 7.8 C 7.02 g/m*3 7.8 C 0 km/h
173 18-11-2011 10:28:02 7.9 C 6.9 g/m*3 7.9 C 0 km/h
174 18-11-2011 10:40:01 8.2 C 6.87 g/m*3 8.2 C 0 km/h
175 18-11-2011 10:52:02 8.2 C 6.7 g/m*3 8.2 C 0 km/h
Sensor: Nr:Datum:Temp:Abs-Feuchte:Windchill:Wind:
Aussen-T/F 176 18-11-2011 11:04:01 8.3 C 6.66 g/m*3 8.3 C 0 km/h
177 18-11-2011 11:16:01 8.8 C 6.79 g/m*3 8.8 C 0 km/h
178 18-11-2011 11:28:01 9 C 6.7 g/m*3 9 C 0 km/h
179 18-11-2011 11:40:02 9.3 C 6.74 g/m*3 9.3 C 0 km/h
180 18-11-2011 11:52:02 9.6 C 6.6 g/m*3 9.6 C 0 km/h
181 18-11-2011 12:04:02 10 C 6.67 g/m*3 10 C 0 km/h
182 18-11-2011 12:16:02 9.9 C 6.72 g/m*3 9.9 C 0 km/h
183 18-11-2011 12:28:02 9.9 C 6.72 g/m*3 9.9 C 0 km/h
184 18-11-2011 12:40:02 9.8 C 6.59 g/m*3 9.8 C 0 km/h
185 18-11-2011 12:52:02 10.3 C 6.61 g/m*3 10.3 C 0 km/h
186 18-11-2011 13:04:02 10 C 6.48 g/m*3 10 C 0 km/h
187 18-11-2011 13:16:02 10.2 C 6.57 g/m*3 10.2 C 0 km/h
188 18-11-2011 13:28:02 10.2 C 6.47 g/m*3 10.2 C 0 km/h
189 18-11-2011 13:40:02 10.3 C 6.51 g/m*3 10.3 C 0 km/h
190 18-11-2011 13:52:01 10.1 C 6.52 g/m*3 10.1 C 0 km/h
191 18-11-2011 14:04:01 10.2 C 6.57 g/m*3 10.2 C 0 km/h
192 18-11-2011 14:16:01 10.1 C 6.52 g/m*3 10.1 C 0 km/h
193 18-11-2011 14:28:01 10.1 C 6.52 g/m*3 10.1 C 0 km/h
194 18-11-2011 14:40:01 10 C 6.48 g/m*3 10 C 0 km/h
195 18-11-2011 14:52:01 10 C 6.58 g/m*3 10 C 0 km/h
196 18-11-2011 15:04:01 9.8 C 6.68 g/m*3 9.8 C 0 km/h
197 18-11-2011 15:16:02 9.7 C 6.64 g/m*3 9.7 C 0 km/h
198 18-11-2011 15:28:02 9.6 C 6.69 g/m*3 9.6 C 0 km/h
199 18-11-2011 15:40:01 9.3 C 6.65 g/m*3 9.3 C 0 km/h
200 18-11-2011 15:52:02 9.2 C 6.88 g/m*3 9.2 C 0 km/h
Sensor: Nr:Datum:Temp:Abs-Feuchte:Windchill:Wind:
Aussen-T/F 201 18-11-2011 16:04:02 8.9 C 6.92 g/m*3 8.9 C 0 km/h
202 18-11-2011 16:16:02 8.7 C 7.01 g/m*3 8.7 C 0 km/h
203 18-11-2011 16:28:02 8.4 C 6.87 g/m*3 8.4 C 0 km/h
204 18-11-2011 16:40:02 8.3 C 6.91 g/m*3 8.3 C 0 km/h
205 18-11-2011 16:52:01 8.1 C 6.91 g/m*3 8.1 C 0 km/h
206 18-11-2011 17:04:01 8 C 6.94 g/m*3 8 C 0 km/h
207 18-11-2011 17:16:01 7.9 C 6.98 g/m*3 7.9 C 0 km/h
208 18-11-2011 17:28:01 7.8 C 6.94 g/m*3 7.8 C 0 km/h
209 18-11-2011 17:40:01 7.8 C 7.02 g/m*3 7.8 C 0 km/h
210 18-11-2011 17:52:01 7.7 C 6.97 g/m*3 7.7 C 0 km/h
211 18-11-2011 18:04:01 7.8 C 7.02 g/m*3 7.8 C 0 km/h
212 18-11-2011 18:16:01 7.6 C 6.93 g/m*3 7.6 C 0 km/h
213 18-11-2011 18:28:01 7.6 C 7.01 g/m*3 7.6 C 0 km/h
214 18-11-2011 18:40:02 7.5 C 6.96 g/m*3 7.5 C 0 km/h
215 18-11-2011 18:52:02 7.5 C 6.96 g/m*3 7.5 C 0 km/h
216 18-11-2011 19:04:02 7.5 C 6.96 g/m*3 7.5 C 0 km/h
217 18-11-2011 19:16:02 7.4 C 6.92 g/m*3 7.4 C 0 km/h
218 18-11-2011 19:28:02 7.3 C 6.87 g/m*3 7.3 C 0 km/h
219 18-11-2011 19:40:02 7.3 C 6.87 g/m*3 7.3 C 0 km/h
220 18-11-2011 19:52:02 7.3 C 6.87 g/m*3 7.3 C 0 km/h
221 18-11-2011 20:04:02 7.3 C 6.87 g/m*3 7.3 C 0 km/h
222 18-11-2011 20:16:02 7.1 C 6.79 g/m*3 7.1 C 0 km/h
223 18-11-2011 20:28:02 7.1 C 6.79 g/m*3 7.1 C 0 km/h
224 18-11-2011 20:40:02 6.9 C 6.77 g/m*3 6.9 C 0 km/h
225 18-11-2011 20:52:01 6.9 C 6.77 g/m*3 6.9 C 0 km/h
Sensor: Nr:Datum:Temp:Abs-Feuchte:Windchill:Wind:
Aussen-T/F 226 18-11-2011 21:04:02 6.9 C 6.77 g/m*3 6.9 C 0 km/h
227 18-11-2011 21:16:02 7 C 6.74 g/m*3 7 C 0 km/h
228 18-11-2011 21:28:02 6.9 C 6.77 g/m*3 6.9 C 0 km/h
229 18-11-2011 21:40:02 6.8 C 6.73 g/m*3 6.8 C 0 km/h
230 18-11-2011 21:52:02 6.8 C 6.73 g/m*3 6.8 C 0 km/h
231 18-11-2011 22:04:02 6.7 C 6.76 g/m*3 6.7 C 0 km/h
232 18-11-2011 22:16:02 6.6 C 6.72 g/m*3 6.6 C 0 km/h
233 18-11-2011 22:28:02 6.7 C 6.76 g/m*3 6.7 C 0 km/h
234 18-11-2011 22:40:02 6.6 C 6.72 g/m*3 6.6 C 0 km/h
235 18-11-2011 22:52:01 6.7 C 6.76 g/m*3 6.7 C 0 km/h
236 18-11-2011 23:04:02 6.6 C 6.72 g/m*3 6.6 C 0 km/h
237 18-11-2011 23:16:02 6.7 C 6.76 g/m*3 6.7 C 0 km/h
238 18-11-2011 23:28:02 6.5 C 6.67 g/m*3 6.5 C 0 km/h
239 18-11-2011 23:40:01 6.4 C 6.63 g/m*3 6.4 C 0 km/h
240 18-11-2011 23:52:02 6.4 C 6.63 g/m*3 6.4 C 0 km/h
241 19-11-2011 00:04:01 6.3 C 6.59 g/m*3 6.3 C 0 km/h
242 19-11-2011 00:16:01 6.4 C 6.71 g/m*3 6.4 C 0 km/h
243 19-11-2011 00:28:01 6.4 C 6.71 g/m*3 6.4 C 0 km/h
244 19-11-2011 00:40:02 6.4 C 6.71 g/m*3 6.4 C 0 km/h
245 19-11-2011 00:52:01 6.3 C 6.66 g/m*3 6.3 C 0 km/h
246 19-11-2011 01:04:02 6.4 C 6.71 g/m*3 6.4 C 0 km/h
247 19-11-2011 01:16:01 6.3 C 6.66 g/m*3 6.3 C 0 km/h
248 19-11-2011 01:28:01 6.3 C 6.66 g/m*3 6.3 C 0 km/h
249 19-11-2011 01:40:02 6.1 C 6.58 g/m*3 6.1 C 0 km/h
250 19-11-2011 01:52:01 6.1 C 6.58 g/m*3 6.1 C 0 km/h
Sensor: Nr:Datum:Temp:Abs-Feuchte:Windchill:Wind:
Aussen-T/F 251 19-11-2011 02:04:02 6 C 6.53 g/m*3 6 C 0 km/h
252 19-11-2011 02:16:02 6.2 C 6.62 g/m*3 6.2 C 0 km/h
253 19-11-2011 02:28:02 5.9 C 6.56 g/m*3 5.9 C 0 km/h
254 19-11-2011 02:40:01 6 C 6.53 g/m*3 6 C 0 km/h
255 19-11-2011 02:52:02 6.2 C 6.69 g/m*3 6.2 C 0 km/h
256 19-11-2011 03:04:02 6.2 C 6.69 g/m*3 6.2 C 0 km/h
257 19-11-2011 03:16:01 6.2 C 6.69 g/m*3 6.2 C 0 km/h
258 19-11-2011 03:28:01 6.2 C 6.69 g/m*3 6.2 C 0 km/h
259 19-11-2011 03:40:01 6.1 C 6.65 g/m*3 6.1 C 0 km/h
260 19-11-2011 03:52:01 5.8 C 6.52 g/m*3 5.8 C 0 km/h
261 19-11-2011 04:04:01 5.3 C 6.31 g/m*3 5.3 C 0 km/h
262 19-11-2011 04:16:02 5 C 6.18 g/m*3 5 C 0 km/h
263 19-11-2011 04:28:02 4.8 C 6.1 g/m*3 4.8 C 0 km/h
264 19-11-2011 04:40:01 4.6 C 6.02 g/m*3 4.6 C 0 km/h
265 19-11-2011 04:52:02 4.2 C 5.86 g/m*3 4.2 C 0 km/h
266 19-11-2011 05:04:01 4.1 C 5.82 g/m*3 4.1 C 0 km/h
267 19-11-2011 05:16:02 3.8 C 5.77 g/m*3 3.8 C 0 km/h
268 19-11-2011 05:28:02 3.8 C 5.77 g/m*3 3.8 C 0 km/h
269 19-11-2011 05:40:01 4 C 5.79 g/m*3 4 C 0 km/h
270 19-11-2011 05:52:02 4.1 C 5.89 g/m*3 4.1 C 0 km/h
271 19-11-2011 06:04:01 4.1 C 5.89 g/m*3 4.1 C 0 km/h
272 19-11-2011 06:16:01 4.1 C 5.89 g/m*3 4.1 C 0 km/h
273 19-11-2011 06:28:01 4 C 5.85 g/m*3 4 C 0 km/h
274 19-11-2011 06:40:01 3.5 C 5.66 g/m*3 3.5 C 0 km/h
275 19-11-2011 06:52:01 3.2 C 5.54 g/m*3 3.2 C 0 km/h
Sensor: Nr:Datum:Temp:Abs-Feuchte:Windchill:Wind:
Aussen-T/F 276 19-11-2011 07:04:01 3.8 C 5.83 g/m*3 3.8 C 0 km/h
277 19-11-2011 07:16:01 3.9 C 5.87 g/m*3 3.9 C 0 km/h
278 19-11-2011 07:28:01 4 C 5.85 g/m*3 4 C 0 km/h
279 19-11-2011 07:40:02 3.9 C 5.87 g/m*3 3.9 C 0 km/h
280 19-11-2011 07:52:01 4 C 5.91 g/m*3 4 C 0 km/h
281 19-11-2011 08:04:02 4 C 5.91 g/m*3 4 C 0 km/h
282 19-11-2011 08:16:01 4 C 5.91 g/m*3 4 C 0 km/h
283 19-11-2011 08:28:01 4.1 C 5.95 g/m*3 4.1 C 0 km/h
284 19-11-2011 08:40:02 4.3 C 6.03 g/m*3 4.3 C 0 km/h
285 19-11-2011 08:52:01 4.3 C 6.03 g/m*3 4.3 C 0 km/h
286 19-11-2011 09:04:02 4.3 C 6.03 g/m*3 4.3 C 0 km/h
287 19-11-2011 09:16:01 4.4 C 6.07 g/m*3 4.4 C 0 km/h
288 19-11-2011 09:28:01 4.3 C 6.03 g/m*3 4.3 C 0 km/h
289 19-11-2011 09:40:01 4.3 C 6.03 g/m*3 4.3 C 0 km/h
290 19-11-2011 09:52:01 4.2 C 5.99 g/m*3 4.2 C 0 km/h
291 19-11-2011 10:04:01 4.5 C 6.11 g/m*3 4.5 C 0 km/h
292 19-11-2011 10:16:02 4.5 C 6.11 g/m*3 4.5 C 0 km/h
293 19-11-2011 10:28:02 4.6 C 6.15 g/m*3 4.6 C 0 km/h
294 19-11-2011 10:40:01 4.9 C 6.28 g/m*3 4.9 C 0 km/h
295 19-11-2011 10:52:02 5.2 C 6.4 g/m*3 5.2 C 0 km/h
296 19-11-2011 11:04:01 5.2 C 6.4 g/m*3 5.2 C 0 km/h
297 19-11-2011 11:16:02 5.4 C 6.49 g/m*3 5.4 C 0 km/h
298 19-11-2011 11:28:02 5.6 C 6.57 g/m*3 5.6 C 0 km/h
299 19-11-2011 11:40:01 5.6 C 6.5 g/m*3 5.6 C 0 km/h
300 19-11-2011 11:52:02 5.6 C 6.5 g/m*3 5.6 C 0 km/h
Sensor: Nr:Datum:Temp:Abs-Feuchte:Windchill:Wind:
Aussen-T/F 301 19-11-2011 12:04:01 5.7 C 6.55 g/m*3 5.7 C 0 km/h
302 19-11-2011 12:16:01 6.1 C 6.65 g/m*3 6.1 C 0 km/h
303 19-11-2011 12:28:01 6.2 C 6.62 g/m*3 6.2 C 0 km/h
304 19-11-2011 12:40:02 6.3 C 6.66 g/m*3 6.3 C 0 km/h
305 19-11-2011 12:52:01 6.1 C 6.5 g/m*3 6.1 C 0 km/h
306 19-11-2011 13:04:02 6.1 C 6.5 g/m*3 6.1 C 0 km/h
307 19-11-2011 13:16:01 6.2 C 6.55 g/m*3 6.2 C 0 km/h
308 19-11-2011 13:28:01 6.2 C 6.55 g/m*3 6.2 C 0 km/h
309 19-11-2011 13:40:02 6.5 C 6.67 g/m*3 6.5 C 0 km/h
310 19-11-2011 13:52:01 6.7 C 6.76 g/m*3 6.7 C 0 km/h
311 19-11-2011 14:04:02 7 C 6.9 g/m*3 7 C 0 km/h
312 19-11-2011 14:16:01 7.2 C 6.91 g/m*3 7.2 C 0 km/h
313 19-11-2011 14:28:01 7.5 C 7.04 g/m*3 7.5 C 0 km/h
314 19-11-2011 14:40:01 7.5 C 7.04 g/m*3 7.5 C 0 km/h
315 19-11-2011 14:52:01 7.5 C 6.96 g/m*3 7.5 C 0 km/h
316 19-11-2011 15:04:01 7.5 C 6.96 g/m*3 7.5 C 0 km/h
317 19-11-2011 15:16:02 7.4 C 6.76 g/m*3 7.4 C 0 km/h
318 19-11-2011 15:28:02 7.6 C 6.69 g/m*3 7.6 C 0 km/h
319 19-11-2011 15:40:01 7.4 C 6.52 g/m*3 7.4 C 0 km/h
320 19-11-2011 15:52:02 7.4 C 6.44 g/m*3 7.4 C 0 km/h
321 19-11-2011 16:04:01 7.2 C 6.28 g/m*3 7.2 C 0 km/h
322 19-11-2011 16:16:02 6.8 C 6.19 g/m*3 6.8 C 0 km/h
323 19-11-2011 16:28:02 6.6 C 6.11 g/m*3 6.6 C 0 km/h
324 19-11-2011 16:40:01 6.2 C 6.03 g/m*3 6.2 C 0 km/h
325 19-11-2011 16:52:02 5.8 C 6.02 g/m*3 5.8 C 0 km/h
Sensor: Nr:Datum:Temp:Abs-Feuchte:Windchill:Wind:
Aussen-T/F 326 19-11-2011 17:04:01 5.7 C 5.98 g/m*3 5.7 C 0 km/h
327 19-11-2011 17:16:01 5.8 C 6.02 g/m*3 5.8 C 0 km/h
328 19-11-2011 17:28:01 5.2 C 5.78 g/m*3 5.2 C 0 km/h
329 19-11-2011 17:40:02 5.2 C 5.85 g/m*3 5.2 C 0 km/h
330 19-11-2011 17:52:01 5.1 C 5.88 g/m*3 5.1 C 0 km/h
331 19-11-2011 18:04:02 5.1 C 5.88 g/m*3 5.1 C 0 km/h
332 19-11-2011 18:16:01 4.5 C 5.72 g/m*3 4.5 C 0 km/h
333 19-11-2011 18:28:01 4.9 C 5.94 g/m*3 4.9 C 0 km/h
334 19-11-2011 18:40:02 5.5 C 6.18 g/m*3 5.5 C 0 km/h
335 19-11-2011 18:52:01 5.5 C 6.18 g/m*3 5.5 C 0 km/h
336 19-11-2011 19:04:02 5.3 C 6.1 g/m*3 5.3 C 0 km/h
337 19-11-2011 19:16:01 4.5 C 5.78 g/m*3 4.5 C 0 km/h
338 19-11-2011 19:28:01 4.9 C 5.94 g/m*3 4.9 C 0 km/h
339 19-11-2011 19:40:01 4.8 C 5.97 g/m*3 4.8 C 0 km/h
340 19-11-2011 19:52:01 4.8 C 5.97 g/m*3 4.8 C 0 km/h
341 19-11-2011 20:04:01 5.1 C 6.09 g/m*3 5.1 C 0 km/h
342 19-11-2011 20:16:02 5.6 C 6.36 g/m*3 5.6 C 0 km/h
343 19-11-2011 20:28:02 5.7 C 6.4 g/m*3 5.7 C 0 km/h
344 19-11-2011 20:40:01 5.7 C 6.4 g/m*3 5.7 C 0 km/h
345 19-11-2011 20:52:02 5.8 C 6.45 g/m*3 5.8 C 0 km/h
346 19-11-2011 21:04:01 5.7 C 6.4 g/m*3 5.7 C 0 km/h
347 19-11-2011 21:16:02 5.8 C 6.45 g/m*3 5.8 C 0 km/h
348 19-11-2011 21:28:02 5.5 C 6.25 g/m*3 5.5 C 0 km/h
349 19-11-2011 21:40:01 5.2 C 6.13 g/m*3 5.2 C 0 km/h
350 19-11-2011 21:52:02 5.3 C 6.17 g/m*3 5.3 C 0 km/h
Sensor: Nr:Datum:Temp:Abs-Feuchte:Windchill:Wind:
Aussen-T/F 351 19-11-2011 22:04:01 5.7 C 6.33 g/m*3 5.7 C 0 km/h
352 19-11-2011 22:16:01 5.8 C 6.38 g/m*3 5.8 C 0 km/h
353 19-11-2011 22:28:01 5.9 C 6.49 g/m*3 5.9 C 0 km/h
354 19-11-2011 22:40:01 5.8 C 6.38 g/m*3 5.8 C 0 km/h
355 19-11-2011 22:52:01 5.6 C 6.22 g/m*3 5.6 C 0 km/h
356 19-11-2011 23:04:02 5.6 C 6.22 g/m*3 5.6 C 0 km/h
357 19-11-2011 23:16:01 4.9 C 5.94 g/m*3 4.9 C 0 km/h
358 19-11-2011 23:28:01 4.2 C 5.67 g/m*3 4.2 C 0 km/h
359 19-11-2011 23:40:02 4.2 C 5.67 g/m*3 4.2 C 0 km/h
360 19-11-2011 23:52:01 4.3 C 5.77 g/m*3 4.3 C 0 km/h
361 20-11-2011 00:04:02 4.9 C 6.08 g/m*3 4.9 C 0 km/h
362 20-11-2011 00:16:01 5.1 C 6.09 g/m*3 5.1 C 0 km/h
363 20-11-2011 00:28:01 5.2 C 6.2 g/m*3 5.2 C 0 km/h
364 20-11-2011 00:40:01 5.2 C 6.2 g/m*3 5.2 C 0 km/h
365 20-11-2011 00:52:01 5.1 C 6.16 g/m*3 5.1 C 0 km/h
366 20-11-2011 01:04:01 5.2 C 6.2 g/m*3 5.2 C 0 km/h
367 20-11-2011 01:16:01 5.4 C 6.35 g/m*3 5.4 C 0 km/h
368 20-11-2011 01:28:01 5.4 C 6.35 g/m*3 5.4 C 0 km/h
369 20-11-2011 01:40:01 5.5 C 6.39 g/m*3 5.5 C 0 km/h
370 20-11-2011 01:52:01 5.5 C 6.39 g/m*3 5.5 C 0 km/h
371 20-11-2011 02:04:01 5.6 C 6.43 g/m*3 5.6 C 0 km/h
372 20-11-2011 02:16:02 5.7 C 6.48 g/m*3 5.7 C 0 km/h
373 20-11-2011 02:28:02 5.7 C 6.48 g/m*3 5.7 C 0 km/h
374 20-11-2011 02:40:01 5.7 C 6.4 g/m*3 5.7 C 0 km/h
375 20-11-2011 02:52:02 5.7 C 6.4 g/m*3 5.7 C 0 km/h
Sensor: Nr:Datum:Temp:Abs-Feuchte:Windchill:Wind:
Aussen-T/F 376 20-11-2011 03:04:02 5.7 C 6.4 g/m*3 5.7 C 0 km/h
377 20-11-2011 03:16:01 5.8 C 6.45 g/m*3 5.8 C 0 km/h
378 20-11-2011 03:28:01 5.8 C 6.45 g/m*3 5.8 C 0 km/h
379 20-11-2011 03:40:01 5.7 C 6.4 g/m*3 5.7 C 0 km/h
380 20-11-2011 03:52:01 5.7 C 6.4 g/m*3 5.7 C 0 km/h
381 20-11-2011 04:04:01 5.6 C 6.36 g/m*3 5.6 C 0 km/h
382 20-11-2011 04:16:02 5.4 C 6.21 g/m*3 5.4 C 0 km/h
383 20-11-2011 04:28:02 5.4 C 6.21 g/m*3 5.4 C 0 km/h
384 20-11-2011 04:40:01 5.5 C 6.25 g/m*3 5.5 C 0 km/h
385 20-11-2011 04:52:02 5.6 C 6.36 g/m*3 5.6 C 0 km/h
386 20-11-2011 05:04:01 5.7 C 6.4 g/m*3 5.7 C 0 km/h
387 20-11-2011 05:16:02 5.8 C 6.45 g/m*3 5.8 C 0 km/h
388 20-11-2011 05:28:02 5.7 C 6.4 g/m*3 5.7 C 0 km/h
389 20-11-2011 05:40:01 5.7 C 6.4 g/m*3 5.7 C 0 km/h
390 20-11-2011 05:52:02 5.7 C 6.4 g/m*3 5.7 C 0 km/h
391 20-11-2011 06:04:01 5.6 C 6.36 g/m*3 5.6 C 0 km/h
392 20-11-2011 06:16:01 5.6 C 6.36 g/m*3 5.6 C 0 km/h
393 20-11-2011 06:28:01 5.7 C 6.4 g/m*3 5.7 C 0 km/h
394 20-11-2011 06:40:02 5.7 C 6.4 g/m*3 5.7 C 0 km/h
395 20-11-2011 06:52:01 5.7 C 6.33 g/m*3 5.7 C 0 km/h
396 20-11-2011 07:04:02 5.7 C 6.33 g/m*3 5.7 C 0 km/h
397 20-11-2011 07:16:01 5.7 C 6.33 g/m*3 5.7 C 0 km/h
398 20-11-2011 07:28:01 5.8 C 6.38 g/m*3 5.8 C 0 km/h
399 20-11-2011 07:40:02 5.8 C 6.38 g/m*3 5.8 C 0 km/h
400 20-11-2011 07:52:01 5.8 C 6.38 g/m*3 5.8 C 0 km/h
Sensor: Nr:Datum:Temp:Abs-Feuchte:Windchill:Wind:
Aussen-T/F 401 20-11-2011 08:04:02 5.8 C 6.38 g/m*3 5.8 C 0 km/h
402 20-11-2011 08:16:01 5.9 C 6.42 g/m*3 5.9 C 0 km/h
403 20-11-2011 08:28:01 6.1 C 6.43 g/m*3 6.1 C 0 km/h
404 20-11-2011 08:40:01 6.3 C 6.51 g/m*3 6.3 C 0 km/h
405 20-11-2011 08:52:01 6.5 C 6.6 g/m*3 6.5 C 0 km/h
406 20-11-2011 09:04:01 6.7 C 6.61 g/m*3 6.7 C 0 km/h
407 20-11-2011 09:16:02 6.9 C 6.62 g/m*3 6.9 C 0 km/h
408 20-11-2011 09:28:02 7.4 C 6.68 g/m*3 7.4 C 0 km/h
409 20-11-2011 09:40:01 7.7 C 6.65 g/m*3 7.7 C 0 km/h
410 20-11-2011 09:52:02 8 C 6.45 g/m*3 8 C 0 km/h
411 20-11-2011 10:04:01 8.3 C 6.07 g/m*3 8.3 C 0 km/h
412 20-11-2011 10:16:02 8.5 C 6.06 g/m*3 8.5 C 0 km/h
413 20-11-2011 10:28:02 8.5 C 5.98 g/m*3 8.5 C 0 km/h
414 20-11-2011 10:40:01 8.7 C 6.05 g/m*3 8.7 C 0 km/h
415 20-11-2011 10:52:02 9.1 C 5.86 g/m*3 9.1 C 0 km/h
416 20-11-2011 11:04:01 9.5 C 5.92 g/m*3 9.5 C 0 km/h
417 20-11-2011 11:16:01 9.8 C 5.85 g/m*3 9.8 C 0 km/h
418 20-11-2011 11:28:01 9.8 C 5.66 g/m*3 9.8 C 0 km/h
419 20-11-2011 11:40:02 9.8 C 5.66 g/m*3 9.8 C 0 km/h
420 20-11-2011 11:52:01 10 C 5.45 g/m*3 10 C 0 km/h
421 20-11-2011 12:04:02 10.4 C 5.49 g/m*3 10.4 C 0 km/h
422 20-11-2011 12:16:01 11 C 5.41 g/m*3 11 C 0 km/h
423 20-11-2011 12:28:01 11.7 C 5.65 g/m*3 11.7 C 0 km/h
424 20-11-2011 12:40:02 11.7 C 5.44 g/m*3 11.7 C 0 km/h
425 20-11-2011 12:52:01 11.4 C 5.34 g/m*3 11.4 C 0 km/h
Sensor: Nr:Datum:Temp:Abs-Feuchte:Windchill:Wind:
Aussen-T/F 426 20-11-2011 13:04:02 11 C 5.41 g/m*3 11 C 0 km/h
427 20-11-2011 13:16:01 11.4 C 5.54 g/m*3 11.4 C 0 km/h
428 20-11-2011 13:28:01 11 C 5.41 g/m*3 11 C 0 km/h
429 20-11-2011 13:40:01 10.8 C 5.73 g/m*3 10.8 C 0 km/h
430 20-11-2011 13:52:01 11.2 C 6.08 g/m*3 11.2 C 0 km/h
431 20-11-2011 14:04:01 11.4 C 5.85 g/m*3 11.4 C 0 km/h
432 20-11-2011 14:16:02 11.5 C 5.68 g/m*3 11.5 C 0 km/h
433 20-11-2011 14:28:02 11.6 C 5.61 g/m*3 11.6 C 0 km/h
434 20-11-2011 14:40:01 11.7 C 5.75 g/m*3 11.7 C 0 km/h
435 20-11-2011 14:52:02 11.5 C 5.89 g/m*3 11.5 C 0 km/h
436 20-11-2011 15:04:01 11.3 C 5.92 g/m*3 11.3 C 0 km/h
437 20-11-2011 15:16:01 11.1 C 6.04 g/m*3 11.1 C 0 km/h
438 20-11-2011 15:28:02 11.1 C 6.25 g/m*3 11.1 C 0 km/h
439 20-11-2011 15:40:01 10.7 C 6.38 g/m*3 10.7 C 0 km/h
440 20-11-2011 15:52:02 10.4 C 6.26 g/m*3 10.4 C 0 km/h
441 20-11-2011 16:04:01 9.9 C 6.35 g/m*3 9.9 C 0 km/h
442 20-11-2011 16:16:01 9.3 C 6.38 g/m*3 9.3 C 0 km/h
443 20-11-2011 16:28:01 8.9 C 6.39 g/m*3 8.9 C 0 km/h
444 20-11-2011 16:40:02 8.4 C 6.28 g/m*3 8.4 C 0 km/h
445 20-11-2011 16:52:01 7.8 C 6.2 g/m*3 7.8 C 0 km/h
446 20-11-2011 17:04:02 7.2 C 6.04 g/m*3 7.2 C 0 km/h
447 20-11-2011 17:16:01 7 C 6.04 g/m*3 7 C 0 km/h
448 20-11-2011 17:28:01 6.7 C 6.08 g/m*3 6.7 C 0 km/h
449 20-11-2011 17:40:02 6.3 C 6 g/m*3 6.3 C 0 km/h
450 20-11-2011 17:52:02 6.3 C 6.07 g/m*3 6.3 C 0 km/h
Sensor: Nr:Datum:Temp:Abs-Feuchte:Windchill:Wind:
Aussen-T/F 451 20-11-2011 18:04:03 5.8 C 5.95 g/m*3 5.8 C 0 km/h
452 20-11-2011 18:16:02 5.5 C 5.9 g/m*3 5.5 C 0 km/h
453 20-11-2011 18:28:02 5.6 C 5.94 g/m*3 5.6 C 0 km/h
454 20-11-2011 18:40:01 5.5 C 5.97 g/m*3 5.5 C 0 km/h
455 20-11-2011 18:52:02 5 C 5.71 g/m*3 5 C 0 km/h
456 20-11-2011 19:04:01 5 C 5.78 g/m*3 5 C 0 km/h
457 20-11-2011 19:16:01 4.7 C 5.73 g/m*3 4.7 C 0 km/h
458 20-11-2011 19:28:02 4.6 C 5.76 g/m*3 4.6 C 0 km/h
459 20-11-2011 19:40:01 4.4 C 5.68 g/m*3 4.4 C 0 km/h
460 20-11-2011 19:52:02 4.5 C 5.72 g/m*3 4.5 C 0 km/h
461 20-11-2011 20:04:01 4.4 C 5.68 g/m*3 4.4 C 0 km/h
462 20-11-2011 20:16:01 4.2 C 5.61 g/m*3 4.2 C 0 km/h
463 20-11-2011 20:28:01 4.1 C 5.57 g/m*3 4.1 C 0 km/h
464 20-11-2011 20:40:02 4.1 C 5.63 g/m*3 4.1 C 0 km/h
465 20-11-2011 20:52:01 3.6 C 5.45 g/m*3 3.6 C 0 km/h
466 20-11-2011 21:04:02 3.6 C 5.45 g/m*3 3.6 C 0 km/h
467 20-11-2011 21:16:01 3.4 C 5.37 g/m*3 3.4 C 0 km/h
468 20-11-2011 21:28:01 3.5 C 5.47 g/m*3 3.5 C 0 km/h
469 20-11-2011 21:40:01 3.3 C 5.4 g/m*3 3.3 C 0 km/h
470 20-11-2011 21:52:01 2.9 C 5.32 g/m*3 2.9 C 0 km/h
471 20-11-2011 22:04:02 2.5 C 5.17 g/m*3 2.5 C 0 km/h
472 20-11-2011 22:16:01 2.6 C 5.21 g/m*3 2.6 C 0 km/h
473 20-11-2011 22:28:01 2.4 C 5.14 g/m*3 2.4 C 0 km/h
474 20-11-2011 22:41:01 2 C 5 g/m*3 2 C 0 km/h
475 20-11-2011 22:53:02 1.8 C 4.93 g/m*3 1.8 C 0 km/h
Sensor: Nr:Datum:Temp:Abs-Feuchte:Windchill:Wind:
Aussen-T/F 476 20-11-2011 23:05:02 1.7 C 4.9 g/m*3 1.7 C 0 km/h
477 20-11-2011 23:17:02 1.6 C 4.87 g/m*3 1.6 C 0 km/h
478 20-11-2011 23:29:02 1.4 C 4.8 g/m*3 1.4 C 0 km/h
479 20-11-2011 23:41:02 1.2 C 4.74 g/m*3 1.2 C 0 km/h
480 20-11-2011 23:53:02 1 C 4.67 g/m*3 1 C 0 km/h
481 21-11-2011 00:05:02 0.8 C 4.66 g/m*3 0.8 C 0 km/h
482 21-11-2011 00:17:02 0.7 C 4.63 g/m*3 0.7 C 0 km/h
483 21-11-2011 00:29:02 0.6 C 4.6 g/m*3 0.6 C 0 km/h
484 21-11-2011 00:41:02 0.5 C 4.56 g/m*3 0.5 C 0 km/h
485 21-11-2011 00:53:02 0.5 C 4.56 g/m*3 0.5 C 0 km/h
486 21-11-2011 01:05:02 0.5 C 4.56 g/m*3 0.5 C 0 km/h
487 21-11-2011 01:17:02 0.2 C 4.47 g/m*3 0.2 C 0 km/h
488 21-11-2011 01:29:02 0.1 C 4.44 g/m*3 0.1 C 0 km/h
489 21-11-2011 01:41:02 0 C 4.41 g/m*3 0 C 0 km/h
490 21-11-2011 01:53:02 -0.2 C 4.35 g/m*3 -0.2 C 0 km/h
491 21-11-2011 02:05:02 -0.4 C 4.29 g/m*3 -0.4 C 0 km/h
492 21-11-2011 02:17:02 -0.3 C 4.32 g/m*3 -0.3 C 0 km/h
493 21-11-2011 02:29:02 -0.5 C 4.26 g/m*3 -0.5 C 0 km/h
494 21-11-2011 02:41:02 -0.7 C 4.2 g/m*3 -0.7 C 0 km/h
495 21-11-2011 02:53:02 -0.3 C 4.32 g/m*3 -0.3 C 0 km/h
496 21-11-2011 03:05:02 -0.3 C 4.32 g/m*3 -0.3 C 0 km/h
497 21-11-2011 03:17:03 0.1 C 4.49 g/m*3 0.1 C 0 km/h
498 21-11-2011 03:29:03 0.4 C 4.58 g/m*3 0.4 C 0 km/h
499 21-11-2011 03:41:03 0.6 C 4.65 g/m*3 0.6 C 0 km/h
500 21-11-2011 03:53:03 0.8 C 4.76 g/m*3 0.8 C 0 km/h
Sensor: Nr:Datum:Temp:Abs-Feuchte:Windchill:Wind:
Aussen-T/F 501 21-11-2011 04:05:03 0.9 C 4.79 g/m*3 0.9 C 0 km/h
502 21-11-2011 04:17:03 0.5 C 4.66 g/m*3 0.5 C 0 km/h
503 21-11-2011 04:29:03 0.4 C 4.63 g/m*3 0.4 C 0 km/h
504 21-11-2011 04:41:03 0.5 C 4.66 g/m*3 0.5 C 0 km/h
505 21-11-2011 04:53:03 0.5 C 4.66 g/m*3 0.5 C 0 km/h
506 21-11-2011 05:05:03 0.5 C 4.66 g/m*3 0.5 C 0 km/h
507 21-11-2011 05:17:03 0.4 C 4.63 g/m*3 0.4 C 0 km/h
508 21-11-2011 05:29:03 0.4 C 4.63 g/m*3 0.4 C 0 km/h
509 21-11-2011 05:41:03 0.4 C 4.63 g/m*3 0.4 C 0 km/h
510 21-11-2011 05:53:03 0.5 C 4.66 g/m*3 0.5 C 0 km/h
511 21-11-2011 06:05:03 0.4 C 4.63 g/m*3 0.4 C 0 km/h
512 21-11-2011 06:17:03 0.3 C 4.65 g/m*3 0.3 C 0 km/h
513 21-11-2011 06:29:03 0.3 C 4.65 g/m*3 0.3 C 0 km/h
514 21-11-2011 06:41:03 0.2 C 4.62 g/m*3 0.2 C 0 km/h
515 21-11-2011 06:53:03 0.2 C 4.62 g/m*3 0.2 C 0 km/h
516 21-11-2011 07:05:03 0.2 C 4.62 g/m*3 0.2 C 0 km/h
517 21-11-2011 07:17:03 0.1 C 4.59 g/m*3 0.1 C 0 km/h
518 21-11-2011 07:29:04 0 C 4.55 g/m*3 0 C 0 km/h
519 21-11-2011 07:41:04 0 C 4.55 g/m*3 0 C 0 km/h
520 21-11-2011 07:53:02 0 C 4.55 g/m*3 0 C 0 km/h
521 21-11-2011 08:05:01 0 C 4.55 g/m*3 0 C 0 km/h
522 21-11-2011 08:17:01 0.1 C 4.59 g/m*3 0.1 C 0 km/h
523 21-11-2011 08:29:02 0.3 C 4.65 g/m*3 0.3 C 0 km/h
524 21-11-2011 08:41:01 0.4 C 4.68 g/m*3 0.4 C 0 km/h
525 21-11-2011 08:53:02 0.4 C 4.68 g/m*3 0.4 C 0 km/h
Sensor: Nr:Datum:Temp:Abs-Feuchte:Windchill:Wind:
Aussen-T/F 526 21-11-2011 09:05:01 0.4 C 4.68 g/m*3 0.4 C 0 km/h
527 21-11-2011 09:17:02 0.4 C 4.68 g/m*3 0.4 C 0 km/h
528 21-11-2011 09:29:02 0.5 C 4.71 g/m*3 0.5 C 0 km/h
529 21-11-2011 09:41:01 0.4 C 4.68 g/m*3 0.4 C 0 km/h
530 21-11-2011 09:53:02 0.6 C 4.75 g/m*3 0.6 C 0 km/h
531 21-11-2011 10:05:01 0.9 C 4.85 g/m*3 0.9 C 0 km/h
532 21-11-2011 10:17:02 1 C 4.88 g/m*3 1 C 0 km/h
533 21-11-2011 10:29:02 1.2 C 4.95 g/m*3 1.2 C 0 km/h
534 21-11-2011 10:41:01 1.7 C 5.12 g/m*3 1.7 C 0 km/h
535 21-11-2011 10:53:02 2 C 5.17 g/m*3 2 C 0 km/h
536 21-11-2011 11:05:01 2 C 5.17 g/m*3 2 C 0 km/h
537 21-11-2011 11:17:01 2.3 C 5.27 g/m*3 2.3 C 0 km/h
538 21-11-2011 11:29:01 2.6 C 5.38 g/m*3 2.6 C 0 km/h
539 21-11-2011 11:41:02 2.6 C 5.32 g/m*3 2.6 C 0 km/h
540 21-11-2011 11:53:01 2.8 C 5.4 g/m*3 2.8 C 0 km/h
541 21-11-2011 12:05:02 2.8 C 5.4 g/m*3 2.8 C 0 km/h
542 21-11-2011 12:17:01 2.7 C 5.3 g/m*3 2.7 C 0 km/h
543 21-11-2011 12:29:01 2.5 C 5.23 g/m*3 2.5 C 0 km/h
544 21-11-2011 12:41:02 2.4 C 5.2 g/m*3 2.4 C 0 km/h
545 21-11-2011 12:53:01 2.4 C 5.2 g/m*3 2.4 C 0 km/h
546 21-11-2011 13:05:02 3.1 C 5.45 g/m*3 3.1 C 0 km/h
547 21-11-2011 13:17:01 3.1 C 5.45 g/m*3 3.1 C 0 km/h
548 21-11-2011 13:29:01 3.3 C 5.52 g/m*3 3.3 C 0 km/h
549 21-11-2011 13:41:01 3.5 C 5.6 g/m*3 3.5 C 0 km/h
550 21-11-2011 13:53:01 3.8 C 5.77 g/m*3 3.8 C 0 km/h
Sensor: Nr:Datum:Temp:Abs-Feuchte:Windchill:Wind:
Aussen-T/F 551 21-11-2011 14:05:01 3.9 C 5.81 g/m*3 3.9 C 0 km/h
552 21-11-2011 14:17:02 4.1 C 5.82 g/m*3 4.1 C 0 km/h
553 21-11-2011 14:29:02 4.3 C 5.9 g/m*3 4.3 C 0 km/h
554 21-11-2011 14:41:01 4.5 C 5.98 g/m*3 4.5 C 0 km/h
555 21-11-2011 14:53:02 4.7 C 6.06 g/m*3 4.7 C 0 km/h
556 21-11-2011 15:05:01 4.8 C 6.1 g/m*3 4.8 C 0 km/h
557 21-11-2011 15:17:02 4.8 C 6.1 g/m*3 4.8 C 0 km/h
558 21-11-2011 15:29:02 4.8 C 6.1 g/m*3 4.8 C 0 km/h
559 21-11-2011 15:41:01 4.7 C 6.06 g/m*3 4.7 C 0 km/h
560 21-11-2011 15:53:02 4.9 C 6.14 g/m*3 4.9 C 0 km/h
561 21-11-2011 16:05:01 4.8 C 6.1 g/m*3 4.8 C 0 km/h
562 21-11-2011 16:17:01 4.7 C 6.06 g/m*3 4.7 C 0 km/h
563 21-11-2011 16:29:01 4.5 C 5.98 g/m*3 4.5 C 0 km/h
564 21-11-2011 16:41:02 4.4 C 5.94 g/m*3 4.4 C 0 km/h
565 21-11-2011 16:53:01 4.1 C 5.82 g/m*3 4.1 C 0 km/h
566 21-11-2011 17:05:02 3.9 C 5.81 g/m*3 3.9 C 0 km/h
567 21-11-2011 17:17:01 4 C 5.79 g/m*3 4 C 0 km/h
568 21-11-2011 17:29:01 4 C 5.79 g/m*3 4 C 0 km/h
569 21-11-2011 17:41:02 3.8 C 5.77 g/m*3 3.8 C 0 km/h
570 21-11-2011 17:53:01 3.6 C 5.69 g/m*3 3.6 C 0 km/h
571 21-11-2011 18:05:02 3.4 C 5.62 g/m*3 3.4 C 0 km/h
572 21-11-2011 18:17:01 3.2 C 5.54 g/m*3 3.2 C 0 km/h
573 21-11-2011 18:29:01 3.2 C 5.54 g/m*3 3.2 C 0 km/h
574 21-11-2011 18:41:01 2.5 C 5.29 g/m*3 2.5 C 0 km/h
575 21-11-2011 18:53:01 2 C 5.11 g/m*3 2 C 0 km/h
Sensor: Nr:Datum:Temp:Abs-Feuchte:Windchill:Wind:
Aussen-T/F 576 21-11-2011 19:05:01 2.2 C 5.18 g/m*3 2.2 C 0 km/h
577 21-11-2011 19:17:02 1.8 C 5.04 g/m*3 1.8 C 0 km/h
578 21-11-2011 19:29:02 1.6 C 4.97 g/m*3 1.6 C 0 km/h
579 21-11-2011 19:41:01 1.3 C 4.87 g/m*3 1.3 C 0 km/h
580 21-11-2011 19:53:02 1.1 C 4.81 g/m*3 1.1 C 0 km/h
581 21-11-2011 20:05:01 1 C 4.78 g/m*3 1 C 0 km/h
582 21-11-2011 20:17:02 0.7 C 4.73 g/m*3 0.7 C 0 km/h
583 21-11-2011 20:29:02 0.5 C 4.66 g/m*3 0.5 C 0 km/h
584 21-11-2011 20:41:01 0.5 C 4.66 g/m*3 0.5 C 0 km/h
585 21-11-2011 20:53:02 0.3 C 4.55 g/m*3 0.3 C 0 km/h
586 21-11-2011 21:05:01 0.1 C 4.49 g/m*3 0.1 C 0 km/h
587 21-11-2011 21:17:01 0.1 C 4.49 g/m*3 0.1 C 0 km/h
588 21-11-2011 21:29:01 0 C 4.46 g/m*3 0 C 0 km/h
589 21-11-2011 21:41:02 0 C 4.46 g/m*3 0 C 0 km/h
590 21-11-2011 21:53:01 -0.3 C 4.37 g/m*3 -0.3 C 0 km/h
591 21-11-2011 22:05:02 -0.4 C 4.34 g/m*3 -0.4 C 0 km/h
592 21-11-2011 22:18:02 -0.3 C 4.37 g/m*3 -0.3 C 0 km/h
593 21-11-2011 22:30:02 -0.5 C 4.31 g/m*3 -0.5 C 0 km/h
594 21-11-2011 22:42:02 -0.7 C 4.25 g/m*3 -0.7 C 0 km/h
595 21-11-2011 22:54:02 -0.5 C 4.31 g/m*3 -0.5 C 0 km/h
596 21-11-2011 23:06:02 -0.6 C 4.28 g/m*3 -0.6 C 0 km/h
597 21-11-2011 23:18:02 -0.9 C 4.19 g/m*3 -0.9 C 0 km/h
598 21-11-2011 23:30:02 -0.6 C 4.28 g/m*3 -0.6 C 0 km/h
599 21-11-2011 23:42:02 -0.5 C 4.35 g/m*3 -0.5 C 0 km/h
600 21-11-2011 23:54:02 -0.4 C 4.38 g/m*3 -0.4 C 0 km/h
Sensor: Nr:Datum:Temp:Abs-Feuchte:Windchill:Wind:
Aussen-T/F 601 22-11-2011 00:06:02 -0.6 C 4.28 g/m*3 -0.6 C 0 km/h
602 22-11-2011 00:18:02 -0.4 C 4.38 g/m*3 -0.4 C 0 km/h
603 22-11-2011 00:30:02 -0.2 C 4.44 g/m*3 -0.2 C 0 km/h
604 22-11-2011 00:42:03 -0.4 C 4.38 g/m*3 -0.4 C 0 km/h
605 22-11-2011 00:54:03 -0.4 C 4.38 g/m*3 -0.4 C 0 km/h
606 22-11-2011 01:06:03 -0.3 C 4.41 g/m*3 -0.3 C 0 km/h
607 22-11-2011 01:18:03 -0.1 C 4.47 g/m*3 -0.1 C 0 km/h
608 22-11-2011 01:30:03 0.1 C 4.54 g/m*3 0.1 C 0 km/h
609 22-11-2011 01:42:03 0.2 C 4.62 g/m*3 0.2 C 0 km/h
610 22-11-2011 01:54:03 0.2 C 4.62 g/m*3 0.2 C 0 km/h
611 22-11-2011 02:06:03 0.1 C 4.59 g/m*3 0.1 C 0 km/h
612 22-11-2011 02:18:03 0 C 4.55 g/m*3 0 C 0 km/h
613 22-11-2011 02:30:03 0 C 4.55 g/m*3 0 C 0 km/h
614 22-11-2011 02:42:03 0.1 C 4.59 g/m*3 0.1 C 0 km/h
615 22-11-2011 02:54:03 -0.1 C 4.52 g/m*3 -0.1 C 0 km/h
616 22-11-2011 03:06:03 -0.3 C 4.46 g/m*3 -0.3 C 0 km/h
617 22-11-2011 03:18:03 -0.3 C 4.46 g/m*3 -0.3 C 0 km/h
618 22-11-2011 03:30:03 -0.4 C 4.43 g/m*3 -0.4 C 0 km/h
619 22-11-2011 03:42:03 -0.5 C 4.4 g/m*3 -0.5 C 0 km/h
620 22-11-2011 03:54:03 -0.5 C 4.4 g/m*3 -0.5 C 0 km/h
621 22-11-2011 04:06:03 -0.4 C 4.43 g/m*3 -0.4 C 0 km/h
622 22-11-2011 04:18:03 -0.4 C 4.43 g/m*3 -0.4 C 0 km/h
623 22-11-2011 04:30:03 -0.4 C 4.43 g/m*3 -0.4 C 0 km/h
624 22-11-2011 04:42:03 -0.4 C 4.43 g/m*3 -0.4 C 0 km/h
625 22-11-2011 04:54:03 -0.3 C 4.46 g/m*3 -0.3 C 0 km/h
Sensor: Nr:Datum:Temp:Abs-Feuchte:Windchill:Wind:
Aussen-T/F 626 22-11-2011 05:06:04 -0.3 C 4.46 g/m*3 -0.3 C 0 km/h
627 22-11-2011 05:18:04 -0.3 C 4.46 g/m*3 -0.3 C 0 km/h
628 22-11-2011 05:30:04 -0.4 C 4.43 g/m*3 -0.4 C 0 km/h
629 22-11-2011 05:42:04 -0.3 C 4.46 g/m*3 -0.3 C 0 km/h
630 22-11-2011 05:54:04 -0.4 C 4.43 g/m*3 -0.4 C 0 km/h
631 22-11-2011 06:06:04 -0.4 C 4.43 g/m*3 -0.4 C 0 km/h
632 22-11-2011 06:18:04 -0.5 C 4.4 g/m*3 -0.5 C 0 km/h
633 22-11-2011 06:30:04 -0.5 C 4.4 g/m*3 -0.5 C 0 km/h
634 22-11-2011 06:42:04 -0.5 C 4.4 g/m*3 -0.5 C 0 km/h
635 22-11-2011 06:54:04 -0.6 C 4.37 g/m*3 -0.6 C 0 km/h
636 22-11-2011 07:06:04 -0.5 C 4.4 g/m*3 -0.5 C 0 km/h
637 22-11-2011 07:18:04 -0.5 C 4.4 g/m*3 -0.5 C 0 km/h
638 22-11-2011 07:30:04 -0.5 C 4.4 g/m*3 -0.5 C 0 km/h
639 22-11-2011 07:42:02 -0.5 C 4.4 g/m*3 -0.5 C 0 km/h
640 22-11-2011 07:54:01 -0.5 C 4.4 g/m*3 -0.5 C 0 km/h
641 22-11-2011 08:06:01 -0.6 C 4.37 g/m*3 -0.6 C 0 km/h
642 22-11-2011 08:18:02 -0.5 C 4.4 g/m*3 -0.5 C 0 km/h
643 22-11-2011 08:30:02 -0.6 C 4.37 g/m*3 -0.6 C 0 km/h
644 22-11-2011 08:42:01 -0.6 C 4.37 g/m*3 -0.6 C 0 km/h
645 22-11-2011 08:54:02 -0.6 C 4.37 g/m*3 -0.6 C 0 km/h
646 22-11-2011 09:06:01 -0.6 C 4.37 g/m*3 -0.6 C 0 km/h
647 22-11-2011 09:18:01 -0.3 C 4.51 g/m*3 -0.3 C 0 km/h
648 22-11-2011 09:30:02 0 C 4.6 g/m*3 0 C 0 km/h
649 22-11-2011 09:42:01 0.1 C 4.63 g/m*3 0.1 C 0 km/h
650 22-11-2011 09:54:02 0.1 C 4.63 g/m*3 0.1 C 0 km/h
Sensor: Nr:Datum:Temp:Abs-Feuchte:Windchill:Wind:
Aussen-T/F 651 22-11-2011 10:06:01 0.2 C 4.67 g/m*3 0.2 C 0 km/h
652 22-11-2011 10:18:01 0.3 C 4.7 g/m*3 0.3 C 0 km/h
653 22-11-2011 10:30:01 0.5 C 4.76 g/m*3 0.5 C 0 km/h
654 22-11-2011 10:42:02 1.1 C 4.91 g/m*3 1.1 C 0 km/h
655 22-11-2011 10:54:01 0.8 C 4.81 g/m*3 0.8 C 0 km/h
656 22-11-2011 11:06:02 1.3 C 4.98 g/m*3 1.3 C 0 km/h
657 22-11-2011 11:18:01 1.2 C 4.95 g/m*3 1.2 C 0 km/h
658 22-11-2011 11:30:01 1.8 C 5.15 g/m*3 1.8 C 0 km/h
659 22-11-2011 11:42:02 1.5 C 4.99 g/m*3 1.5 C 0 km/h
660 22-11-2011 11:54:01 1.8 C 5.1 g/m*3 1.8 C 0 km/h
661 22-11-2011 12:06:02 2.3 C 5.27 g/m*3 2.3 C 0 km/h
662 22-11-2011 12:18:01 2.1 C 5.15 g/m*3 2.1 C 0 km/h
663 22-11-2011 12:30:01 2.6 C 5.32 g/m*3 2.6 C 0 km/h
664 22-11-2011 12:42:01 3 C 5.35 g/m*3 3 C 0 km/h
665 22-11-2011 12:54:01 3.2 C 5.36 g/m*3 3.2 C 0 km/h
666 22-11-2011 13:06:01 3.1 C 5.27 g/m*3 3.1 C 0 km/h
667 22-11-2011 13:18:01 3.1 C 5.27 g/m*3 3.1 C 0 km/h
668 22-11-2011 13:30:01 3.5 C 5.41 g/m*3 3.5 C 0 km/h
669 22-11-2011 13:42:01 3.3 C 5.28 g/m*3 3.3 C 0 km/h
670 22-11-2011 13:54:01 2.8 C 5.1 g/m*3 2.8 C 0 km/h
671 22-11-2011 14:06:01 2.9 C 5.2 g/m*3 2.9 C 0 km/h
672 22-11-2011 14:18:02 3.1 C 5.27 g/m*3 3.1 C 0 km/h
673 22-11-2011 14:30:02 3.8 C 5.58 g/m*3 3.8 C 0 km/h
674 22-11-2011 14:42:01 4.3 C 5.77 g/m*3 4.3 C 0 km/h
675 22-11-2011 14:54:02 4.4 C 5.81 g/m*3 4.4 C 0 km/h
Sensor: Nr:Datum:Temp:Abs-Feuchte:Windchill:Wind:
Aussen-T/F 676 22-11-2011 15:06:01 4.4 C 5.75 g/m*3 4.4 C 0 km/h
677 22-11-2011 15:18:01 4.6 C 5.82 g/m*3 4.6 C 0 km/h
678 22-11-2011 15:30:02 4.7 C 5.93 g/m*3 4.7 C 0 km/h
679 22-11-2011 15:42:01 4.6 C 5.82 g/m*3 4.6 C 0 km/h
680 22-11-2011 15:54:02 4.2 C 5.67 g/m*3 4.2 C 0 km/h
681 22-11-2011 16:06:01 3.7 C 5.48 g/m*3 3.7 C 0 km/h
682 22-11-2011 16:18:01 3.2 C 5.3 g/m*3 3.2 C 0 km/h
683 22-11-2011 16:30:01 2.6 C 5.09 g/m*3 2.6 C 0 km/h
684 22-11-2011 16:42:02 2.2 C 4.96 g/m*3 2.2 C 0 km/h
685 22-11-2011 16:54:01 2 C 4.89 g/m*3 2 C 0 km/h
686 22-11-2011 17:06:02 1.7 C 4.85 g/m*3 1.7 C 0 km/h
687 22-11-2011 17:18:01 1.5 C 4.83 g/m*3 1.5 C 0 km/h
688 22-11-2011 17:30:01 1.6 C 4.87 g/m*3 1.6 C 0 km/h
689 22-11-2011 17:42:02 1.8 C 4.93 g/m*3 1.8 C 0 km/h
690 22-11-2011 17:54:01 1.9 C 5.02 g/m*3 1.9 C 0 km/h
691 22-11-2011 18:06:02 1.8 C 4.99 g/m*3 1.8 C 0 km/h
692 22-11-2011 18:18:01 1.7 C 4.95 g/m*3 1.7 C 0 km/h
693 22-11-2011 18:30:01 1.8 C 4.99 g/m*3 1.8 C 0 km/h
694 22-11-2011 18:42:02 1.9 C 5.02 g/m*3 1.9 C 0 km/h
695 22-11-2011 18:54:01 2.4 C 5.2 g/m*3 2.4 C 0 km/h
696 22-11-2011 19:06:01 2.5 C 5.23 g/m*3 2.5 C 0 km/h
697 22-11-2011 19:18:01 2.5 C 5.29 g/m*3 2.5 C 0 km/h
698 22-11-2011 19:30:01 2.5 C 5.29 g/m*3 2.5 C 0 km/h
699 22-11-2011 19:42:02 2.5 C 5.29 g/m*3 2.5 C 0 km/h
700 22-11-2011 19:54:01 2.6 C 5.32 g/m*3 2.6 C 0 km/h
Sensor: Nr:Datum:Temp:Abs-Feuchte:Windchill:Wind:
Aussen-T/F 701 22-11-2011 20:06:02 2.6 C 5.32 g/m*3 2.6 C 0 km/h
702 22-11-2011 20:18:01 2.4 C 5.25 g/m*3 2.4 C 0 km/h
703 22-11-2011 20:30:01 2.2 C 5.18 g/m*3 2.2 C 0 km/h
704 22-11-2011 20:42:01 2 C 5.11 g/m*3 2 C 0 km/h
705 22-11-2011 20:54:01 1.8 C 5.04 g/m*3 1.8 C 0 km/h
706 22-11-2011 21:06:01 1.8 C 5.04 g/m*3 1.8 C 0 km/h
707 22-11-2011 21:18:02 2 C 5.11 g/m*3 2 C 0 km/h
708 22-11-2011 21:30:02 2.1 C 5.15 g/m*3 2.1 C 0 km/h
709 22-11-2011 21:42:01 2.4 C 5.25 g/m*3 2.4 C 0 km/h
710 22-11-2011 21:54:01 2.3 C 5.22 g/m*3 2.3 C 0 km/h
711 22-11-2011 22:07:05 2.2 C 5.18 g/m*3 2.2 C 0 km/h
712 22-11-2011 22:19:05 1.6 C 5.03 g/m*3 1.6 C 0 km/h
713 22-11-2011 22:31:05 1 C 4.78 g/m*3 1 C 0 km/h
714 22-11-2011 22:43:05 0.6 C 4.65 g/m*3 0.6 C 0 km/h
715 22-11-2011 22:55:05 0.6 C 4.65 g/m*3 0.6 C 0 km/h
716 22-11-2011 23:07:05 0.4 C 4.58 g/m*3 0.4 C 0 km/h
717 22-11-2011 23:19:05 0.1 C 4.49 g/m*3 0.1 C 0 km/h
718 22-11-2011 23:31:05 0.1 C 4.49 g/m*3 0.1 C 0 km/h
719 22-11-2011 23:43:05 0 C 4.46 g/m*3 0 C 0 km/h
720 22-11-2011 23:55:05 -0.2 C 4.4 g/m*3 -0.2 C 0 km/h
721 23-11-2011 00:07:05 0.1 C 4.49 g/m*3 0.1 C 0 km/h
722 23-11-2011 00:19:05 -0.1 C 4.43 g/m*3 -0.1 C 0 km/h
723 23-11-2011 00:31:05 -0.3 C 4.37 g/m*3 -0.3 C 0 km/h
724 23-11-2011 00:43:06 -0.5 C 4.31 g/m*3 -0.5 C 0 km/h
725 23-11-2011 00:55:06 -0.2 C 4.4 g/m*3 -0.2 C 0 km/h
Sensor: Nr:Datum:Temp:Abs-Feuchte:Windchill:Wind:
Aussen-T/F 726 23-11-2011 01:07:06 -0.1 C 4.43 g/m*3 -0.1 C 0 km/h
727 23-11-2011 01:19:06 0.4 C 4.63 g/m*3 0.4 C 0 km/h
728 23-11-2011 01:31:06 0.8 C 4.76 g/m*3 0.8 C 0 km/h
729 23-11-2011 01:43:06 1 C 4.83 g/m*3 1 C 0 km/h
730 23-11-2011 01:55:06 1.1 C 4.86 g/m*3 1.1 C 0 km/h
731 23-11-2011 02:07:06 0.8 C 4.76 g/m*3 0.8 C 0 km/h
732 23-11-2011 02:19:06 0.9 C 4.85 g/m*3 0.9 C 0 km/h
733 23-11-2011 02:31:06 1 C 4.83 g/m*3 1 C 0 km/h
734 23-11-2011 02:43:06 1.1 C 4.86 g/m*3 1.1 C 0 km/h
735 23-11-2011 02:55:06 1.6 C 5.08 g/m*3 1.6 C 0 km/h
736 23-11-2011 03:07:06 1.2 C 4.95 g/m*3 1.2 C 0 km/h
737 23-11-2011 03:19:06 1.1 C 4.86 g/m*3 1.1 C 0 km/h
738 23-11-2011 03:31:06 1 C 4.88 g/m*3 1 C 0 km/h
739 23-11-2011 03:43:06 0.9 C 4.85 g/m*3 0.9 C 0 km/h
740 23-11-2011 03:55:06 0.9 C 4.85 g/m*3 0.9 C 0 km/h
741 23-11-2011 04:07:06 0.9 C 4.85 g/m*3 0.9 C 0 km/h
742 23-11-2011 04:19:06 1 C 4.88 g/m*3 1 C 0 km/h
743 23-11-2011 04:31:06 1 C 4.88 g/m*3 1 C 0 km/h
744 23-11-2011 04:43:06 1 C 4.88 g/m*3 1 C 0 km/h
745 23-11-2011 04:55:07 0.9 C 4.85 g/m*3 0.9 C 0 km/h
746 23-11-2011 05:07:07 0.8 C 4.81 g/m*3 0.8 C 0 km/h
747 23-11-2011 05:19:07 0.8 C 4.81 g/m*3 0.8 C 0 km/h
748 23-11-2011 05:31:07 0.7 C 4.78 g/m*3 0.7 C 0 km/h
749 23-11-2011 05:43:07 0.8 C 4.81 g/m*3 0.8 C 0 km/h
750 23-11-2011 05:55:07 0.9 C 4.85 g/m*3 0.9 C 0 km/h
Sensor: Nr:Datum:Temp:Abs-Feuchte:Windchill:Wind:
Aussen-T/F 751 23-11-2011 06:07:07 0.8 C 4.86 g/m*3 0.8 C 0 km/h
752 23-11-2011 06:19:07 0.6 C 4.75 g/m*3 0.6 C 0 km/h
753 23-11-2011 06:31:07 0.6 C 4.75 g/m*3 0.6 C 0 km/h
754 23-11-2011 06:43:07 0.8 C 4.86 g/m*3 0.8 C 0 km/h
755 23-11-2011 06:55:07 0.9 C 4.9 g/m*3 0.9 C 0 km/h
756 23-11-2011 07:07:07 0.8 C 4.86 g/m*3 0.8 C 0 km/h
757 23-11-2011 07:19:07 0.6 C 4.8 g/m*3 0.6 C 0 km/h
758 23-11-2011 07:31:04 0.5 C 4.71 g/m*3 0.5 C 0 km/h
759 23-11-2011 07:43:05 0.7 C 4.83 g/m*3 0.7 C 0 km/h
760 23-11-2011 07:55:02 0.8 C 4.86 g/m*3 0.8 C 0 km/h
761 23-11-2011 08:07:02 1 C 4.88 g/m*3 1 C 0 km/h
762 23-11-2011 08:19:02 1.2 C 4.95 g/m*3 1.2 C 0 km/h
763 23-11-2011 08:31:02 1.1 C 4.91 g/m*3 1.1 C 0 km/h
764 23-11-2011 08:43:02 1.3 C 4.98 g/m*3 1.3 C 0 km/h
765 23-11-2011 08:55:02 1.4 C 5.01 g/m*3 1.4 C 0 km/h
766 23-11-2011 09:07:01 1.4 C 5.07 g/m*3 1.4 C 0 km/h
767 23-11-2011 09:19:02 1.5 C 5.1 g/m*3 1.5 C 0 km/h
768 23-11-2011 09:31:02 1.4 C 5.07 g/m*3 1.4 C 0 km/h
769 23-11-2011 09:43:02 1.4 C 5.07 g/m*3 1.4 C 0 km/h
770 23-11-2011 09:55:02 1.3 C 5.03 g/m*3 1.3 C 0 km/h
771 23-11-2011 10:07:01 1.5 C 5.1 g/m*3 1.5 C 0 km/h
772 23-11-2011 10:19:01 1.5 C 5.1 g/m*3 1.5 C 0 km/h
773 23-11-2011 10:31:02 1.8 C 5.21 g/m*3 1.8 C 0 km/h
774 23-11-2011 10:43:02 2.2 C 5.29 g/m*3 2.2 C 0 km/h
775 23-11-2011 10:55:02 1.9 C 5.24 g/m*3 1.9 C 0 km/h
Sensor: Nr:Datum:Temp:Abs-Feuchte:Windchill:Wind:
Aussen-T/F 776 23-11-2011 11:07:02 2.2 C 5.29 g/m*3 2.2 C 0 km/h
777 23-11-2011 11:19:02 2.2 C 5.29 g/m*3 2.2 C 0 km/h
778 23-11-2011 11:31:02 2.7 C 5.48 g/m*3 2.7 C 0 km/h
779 23-11-2011 11:43:03 2.8 C 5.51 g/m*3 2.8 C 0 km/h
780 23-11-2011 11:55:02 3 C 5.53 g/m*3 3 C 0 km/h
781 23-11-2011 12:07:02 3.3 C 5.64 g/m*3 3.3 C 0 km/h
782 23-11-2011 12:19:02 3.3 C 5.64 g/m*3 3.3 C 0 km/h
783 23-11-2011 12:31:02 3.2 C 5.54 g/m*3 3.2 C 0 km/h
784 23-11-2011 12:43:02 3.4 C 5.62 g/m*3 3.4 C 0 km/h
785 23-11-2011 12:55:02 3.8 C 5.77 g/m*3 3.8 C 0 km/h
786 23-11-2011 13:07:02 3.7 C 5.61 g/m*3 3.7 C 0 km/h
787 23-11-2011 13:19:03 3.8 C 5.65 g/m*3 3.8 C 0 km/h
788 23-11-2011 13:31:02 3.7 C 5.55 g/m*3 3.7 C 0 km/h
789 23-11-2011 13:43:02 4 C 5.66 g/m*3 4 C 0 km/h
790 23-11-2011 13:55:03 4.1 C 5.7 g/m*3 4.1 C 0 km/h
791 23-11-2011 14:07:02 3.9 C 5.62 g/m*3 3.9 C 0 km/h
792 23-11-2011 14:19:02 3.9 C 5.56 g/m*3 3.9 C 0 km/h
793 23-11-2011 14:31:02 4 C 5.59 g/m*3 4 C 0 km/h
794 23-11-2011 14:43:02 3.6 C 5.45 g/m*3 3.6 C 0 km/h
795 23-11-2011 14:55:02 3 C 5.23 g/m*3 3 C 0 km/h
796 23-11-2011 15:07:02 3 C 5.23 g/m*3 3 C 0 km/h
797 23-11-2011 15:19:02 3 C 5.29 g/m*3 3 C 0 km/h
798 23-11-2011 15:31:02 2.9 C 5.26 g/m*3 2.9 C 0 km/h
799 23-11-2011 15:43:02 2.7 C 5.24 g/m*3 2.7 C 0 km/h
800 23-11-2011 15:55:02 2.5 C 5.17 g/m*3 2.5 C 0 km/h
Sensor: Nr:Datum:Temp:Abs-Feuchte:Windchill:Wind:
Aussen-T/F 801 23-11-2011 16:07:01 2.4 C 5.14 g/m*3 2.4 C 0 km/h
802 23-11-2011 16:19:01 2.2 C 5.07 g/m*3 2.2 C 0 km/h
803 23-11-2011 16:31:02 1.6 C 4.92 g/m*3 1.6 C 0 km/h
804 23-11-2011 16:43:02 1.5 C 4.89 g/m*3 1.5 C 0 km/h
805 23-11-2011 16:55:02 1.9 C 5.02 g/m*3 1.9 C 0 km/h
806 23-11-2011 17:07:02 2.3 C 5.16 g/m*3 2.3 C 0 km/h
807 23-11-2011 17:19:02 2.3 C 5.22 g/m*3 2.3 C 0 km/h
808 23-11-2011 17:31:02 1.9 C 5.08 g/m*3 1.9 C 0 km/h
809 23-11-2011 17:43:02 1.8 C 5.04 g/m*3 1.8 C 0 km/h
810 23-11-2011 17:55:02 2 C 5.11 g/m*3 2 C 0 km/h
811 23-11-2011 18:07:02 2.1 C 5.15 g/m*3 2.1 C 0 km/h
812 23-11-2011 18:19:02 1.5 C 4.94 g/m*3 1.5 C 0 km/h
813 23-11-2011 18:31:02 1.2 C 4.84 g/m*3 1.2 C 0 km/h
814 23-11-2011 18:43:02 1.1 C 4.81 g/m*3 1.1 C 0 km/h
815 23-11-2011 18:55:02 1.7 C 5.06 g/m*3 1.7 C 0 km/h
816 23-11-2011 19:07:02 1.2 C 4.89 g/m*3 1.2 C 0 km/h
817 23-11-2011 19:19:02 1.6 C 5.03 g/m*3 1.6 C 0 km/h
818 23-11-2011 19:31:02 1.6 C 5.03 g/m*3 1.6 C 0 km/h
819 23-11-2011 19:43:02 1.7 C 5.06 g/m*3 1.7 C 0 km/h
820 23-11-2011 19:55:02 1.6 C 5.03 g/m*3 1.6 C 0 km/h
821 23-11-2011 20:07:02 1.6 C 5.03 g/m*3 1.6 C 0 km/h
822 23-11-2011 20:19:02 1.6 C 5.08 g/m*3 1.6 C 0 km/h
823 23-11-2011 20:31:02 1.4 C 4.96 g/m*3 1.4 C 0 km/h
824 23-11-2011 20:43:02 1.4 C 5.01 g/m*3 1.4 C 0 km/h
825 23-11-2011 20:55:02 1.3 C 4.93 g/m*3 1.3 C 0 km/h
Sensor: Nr:Datum:Temp:Abs-Feuchte:Windchill:Wind:
Aussen-T/F 826 23-11-2011 21:07:01 1.3 C 4.98 g/m*3 1.3 C 0 km/h
827 23-11-2011 21:19:01 1.4 C 5.01 g/m*3 1.4 C 0 km/h
828 23-11-2011 21:31:02 1.4 C 5.01 g/m*3 1.4 C 0 km/h
829 23-11-2011 21:43:02 1.2 C 4.95 g/m*3 1.2 C 0 km/h
830 23-11-2011 21:55:02 1.3 C 4.98 g/m*3 1.3 C 0 km/h
831 23-11-2011 22:07:02 1.4 C 5.01 g/m*3 1.4 C 0 km/h
832 23-11-2011 22:20:03 1 C 4.88 g/m*3 1 C 0 km/h
833 23-11-2011 22:32:03 1.2 C 4.95 g/m*3 1.2 C 0 km/h
834 23-11-2011 22:44:03 1.2 C 4.95 g/m*3 1.2 C 0 km/h
835 23-11-2011 22:56:03 1.1 C 4.91 g/m*3 1.1 C 0 km/h
836 23-11-2011 23:08:03 1 C 4.88 g/m*3 1 C 0 km/h
837 23-11-2011 23:20:03 0.7 C 4.78 g/m*3 0.7 C 0 km/h
838 23-11-2011 23:32:03 0.7 C 4.78 g/m*3 0.7 C 0 km/h
839 23-11-2011 23:44:03 0.8 C 4.81 g/m*3 0.8 C 0 km/h
840 23-11-2011 23:56:03 1.1 C 4.91 g/m*3 1.1 C 0 km/h
841 24-11-2011 00:08:03 0.9 C 4.85 g/m*3 0.9 C 0 km/h
842 24-11-2011 00:20:03 0.7 C 4.78 g/m*3 0.7 C 0 km/h
843 24-11-2011 00:32:03 0.6 C 4.75 g/m*3 0.6 C 0 km/h
844 24-11-2011 00:44:03 0.6 C 4.75 g/m*3 0.6 C 0 km/h
845 24-11-2011 00:56:03 0.8 C 4.81 g/m*3 0.8 C 0 km/h
846 24-11-2011 01:08:03 0.8 C 4.86 g/m*3 0.8 C 0 km/h
847 24-11-2011 01:20:04 0.6 C 4.75 g/m*3 0.6 C 0 km/h
848 24-11-2011 01:32:04 0.5 C 4.71 g/m*3 0.5 C 0 km/h
849 24-11-2011 01:44:04 0.1 C 4.59 g/m*3 0.1 C 0 km/h
850 24-11-2011 01:56:04 0 C 4.55 g/m*3 0 C 0 km/h
Sensor: Nr:Datum:Temp:Abs-Feuchte:Windchill:Wind:
Aussen-T/F 851 24-11-2011 02:08:04 0.5 C 4.71 g/m*3 0.5 C 0 km/h
852 24-11-2011 02:20:04 0.7 C 4.83 g/m*3 0.7 C 0 km/h
853 24-11-2011 02:32:04 0.8 C 4.86 g/m*3 0.8 C 0 km/h
854 24-11-2011 02:44:04 1 C 4.88 g/m*3 1 C 0 km/h
855 24-11-2011 02:56:04 1.1 C 4.91 g/m*3 1.1 C 0 km/h
856 24-11-2011 03:08:04 1.1 C 4.91 g/m*3 1.1 C 0 km/h
857 24-11-2011 03:20:04 1.5 C 5.05 g/m*3 1.5 C 0 km/h
858 24-11-2011 03:32:04 1.5 C 5.1 g/m*3 1.5 C 0 km/h
859 24-11-2011 03:44:04 1.6 C 5.14 g/m*3 1.6 C 0 km/h
860 24-11-2011 03:56:04 1.7 C 5.17 g/m*3 1.7 C 0 km/h
861 24-11-2011 04:08:04 1.8 C 5.21 g/m*3 1.8 C 0 km/h
862 24-11-2011 04:20:04 1.9 C 5.24 g/m*3 1.9 C 0 km/h
863 24-11-2011 04:32:04 2.1 C 5.26 g/m*3 2.1 C 0 km/h
864 24-11-2011 04:44:04 2 C 5.22 g/m*3 2 C 0 km/h
865 24-11-2011 04:56:04 2.1 C 5.26 g/m*3 2.1 C 0 km/h
866 24-11-2011 05:08:04 2.2 C 5.29 g/m*3 2.2 C 0 km/h
867 24-11-2011 05:20:05 2.2 C 5.29 g/m*3 2.2 C 0 km/h
868 24-11-2011 05:32:05 2.2 C 5.29 g/m*3 2.2 C 0 km/h
869 24-11-2011 05:44:05 2.2 C 5.29 g/m*3 2.2 C 0 km/h
870 24-11-2011 05:56:05 2.3 C 5.33 g/m*3 2.3 C 0 km/h
871 24-11-2011 06:08:05 2.5 C 5.46 g/m*3 2.5 C 0 km/h
872 24-11-2011 06:20:05 2.6 C 5.5 g/m*3 2.6 C 0 km/h
873 24-11-2011 06:32:05 2.6 C 5.5 g/m*3 2.6 C 0 km/h
874 24-11-2011 06:44:05 2.7 C 5.54 g/m*3 2.7 C 0 km/h
875 24-11-2011 06:56:05 2.7 C 5.54 g/m*3 2.7 C 0 km/h
Sensor: Nr:Datum:Temp:Abs-Feuchte:Windchill:Wind:
Aussen-T/F 876 24-11-2011 07:08:02 2.8 C 5.57 g/m*3 2.8 C 0 km/h
877 24-11-2011 07:20:03 2.8 C 5.57 g/m*3 2.8 C 0 km/h
878 24-11-2011 07:32:02 2.9 C 5.61 g/m*3 2.9 C 0 km/h
879 24-11-2011 07:44:02 2.9 C 5.61 g/m*3 2.9 C 0 km/h
880 24-11-2011 07:56:02 3 C 5.59 g/m*3 3 C 0 km/h
881 24-11-2011 08:08:02 3.1 C 5.63 g/m*3 3.1 C 0 km/h
882 24-11-2011 08:20:02 3.1 C 5.63 g/m*3 3.1 C 0 km/h
883 24-11-2011 08:32:02 3.2 C 5.66 g/m*3 3.2 C 0 km/h
884 24-11-2011 08:44:02 3.3 C 5.7 g/m*3 3.3 C 0 km/h
885 24-11-2011 08:56:01 3.4 C 5.74 g/m*3 3.4 C 0 km/h
886 24-11-2011 09:08:02 3.5 C 5.78 g/m*3 3.5 C 0 km/h
887 24-11-2011 09:20:01 3.7 C 5.92 g/m*3 3.7 C 0 km/h
888 24-11-2011 09:32:01 3.8 C 5.96 g/m*3 3.8 C 0 km/h
889 24-11-2011 09:44:01 3.9 C 6 g/m*3 3.9 C 0 km/h
890 24-11-2011 09:56:01 4 C 5.98 g/m*3 4 C 0 km/h
891 24-11-2011 10:08:02 4.1 C 6.02 g/m*3 4.1 C 0 km/h
892 24-11-2011 10:20:01 4.3 C 6.1 g/m*3 4.3 C 0 km/h
893 24-11-2011 10:32:01 4.4 C 6.14 g/m*3 4.4 C 0 km/h
894 24-11-2011 10:44:01 4.6 C 6.22 g/m*3 4.6 C 0 km/h
895 24-11-2011 10:56:01 4.6 C 6.22 g/m*3 4.6 C 0 km/h
896 24-11-2011 11:08:02 4.4 C 6.07 g/m*3 4.4 C 0 km/h
897 24-11-2011 11:20:02 4.4 C 6.07 g/m*3 4.4 C 0 km/h
898 24-11-2011 11:32:01 4.9 C 6.28 g/m*3 4.9 C 0 km/h
899 24-11-2011 11:44:01 4.9 C 6.28 g/m*3 4.9 C 0 km/h
900 24-11-2011 11:56:02 4.8 C 6.17 g/m*3 4.8 C 0 km/h
Sensor: Nr:Datum:Temp:Abs-Feuchte:Windchill:Wind:
Aussen-T/F 901 24-11-2011 12:08:01 5 C 6.18 g/m*3 5 C 0 km/h
902 24-11-2011 12:20:02 5 C 6.12 g/m*3 5 C 0 km/h
903 24-11-2011 12:32:01 5 C 6.05 g/m*3 5 C 0 km/h
904 24-11-2011 12:44:01 5.3 C 6.17 g/m*3 5.3 C 0 km/h
905 24-11-2011 12:56:02 5.3 C 6.1 g/m*3 5.3 C 0 km/h
906 24-11-2011 13:08:02 5 C 5.98 g/m*3 5 C 0 km/h
907 24-11-2011 13:20:02 5.3 C 6.1 g/m*3 5.3 C 0 km/h
908 24-11-2011 13:32:02 5.4 C 6.07 g/m*3 5.4 C 0 km/h
909 24-11-2011 13:44:02 5.5 C 6.11 g/m*3 5.5 C 0 km/h
910 24-11-2011 13:56:02 5.6 C 6.15 g/m*3 5.6 C 0 km/h
911 24-11-2011 14:08:02 5.9 C 6.2 g/m*3 5.9 C 0 km/h
912 24-11-2011 14:20:01 5.9 C 6.13 g/m*3 5.9 C 0 km/h
913 24-11-2011 14:32:02 5.9 C 6.2 g/m*3 5.9 C 0 km/h
914 24-11-2011 14:44:02 5.9 C 6.2 g/m*3 5.9 C 0 km/h
915 24-11-2011 14:56:02 5.9 C 6.2 g/m*3 5.9 C 0 km/h
916 24-11-2011 15:08:02 5.6 C 6.08 g/m*3 5.6 C 0 km/h
917 24-11-2011 15:20:01 5.5 C 6.11 g/m*3 5.5 C 0 km/h
918 24-11-2011 15:32:02 5.2 C 5.99 g/m*3 5.2 C 0 km/h
919 24-11-2011 15:44:02 4.8 C 5.9 g/m*3 4.8 C 0 km/h
920 24-11-2011 15:56:02 4.4 C 5.75 g/m*3 4.4 C 0 km/h
921 24-11-2011 16:08:02 4.2 C 5.67 g/m*3 4.2 C 0 km/h
922 24-11-2011 16:20:01 3.9 C 5.62 g/m*3 3.9 C 0 km/h
923 24-11-2011 16:32:02 3.5 C 5.47 g/m*3 3.5 C 0 km/h
924 24-11-2011 16:44:02 3.3 C 5.4 g/m*3 3.3 C 0 km/h
925 24-11-2011 16:56:01 3.2 C 5.36 g/m*3 3.2 C 0 km/h
Sensor: Nr:Datum:Temp:Abs-Feuchte:Windchill:Wind:
Aussen-T/F 926 24-11-2011 17:08:02 3 C 5.35 g/m*3 3 C 0 km/h
927 24-11-2011 17:20:02 2.8 C 5.34 g/m*3 2.8 C 0 km/h
928 24-11-2011 17:32:01 2.6 C 5.27 g/m*3 2.6 C 0 km/h
929 24-11-2011 17:44:01 2.7 C 5.3 g/m*3 2.7 C 0 km/h
930 24-11-2011 17:56:02 2.4 C 5.2 g/m*3 2.4 C 0 km/h
931 24-11-2011 18:08:01 2.3 C 5.16 g/m*3 2.3 C 0 km/h
932 24-11-2011 18:20:02 2.4 C 5.25 g/m*3 2.4 C 0 km/h
933 24-11-2011 18:32:01 1.9 C 5.08 g/m*3 1.9 C 0 km/h
934 24-11-2011 18:44:01 1.5 C 4.94 g/m*3 1.5 C 0 km/h
935 24-11-2011 18:56:02 1.3 C 4.87 g/m*3 1.3 C 0 km/h
936 24-11-2011 19:08:02 1.1 C 4.81 g/m*3 1.1 C 0 km/h
937 24-11-2011 19:20:02 1.1 C 4.81 g/m*3 1.1 C 0 km/h
938 24-11-2011 19:32:02 1.1 C 4.81 g/m*3 1.1 C 0 km/h
939 24-11-2011 19:44:02 0.8 C 4.71 g/m*3 0.8 C 0 km/h
940 24-11-2011 19:56:02 0.6 C 4.65 g/m*3 0.6 C 0 km/h
941 24-11-2011 20:08:02 0.3 C 4.55 g/m*3 0.3 C 0 km/h
942 24-11-2011 20:20:01 0.3 C 4.55 g/m*3 0.3 C 0 km/h
943 24-11-2011 20:32:02 0.3 C 4.55 g/m*3 0.3 C 0 km/h
944 24-11-2011 20:44:03 -0.2 C 4.4 g/m*3 -0.2 C 0 km/h
945 24-11-2011 20:56:02 -0.2 C 4.4 g/m*3 -0.2 C 0 km/h
946 24-11-2011 21:08:02 0 C 4.46 g/m*3 0 C 0 km/h
947 24-11-2011 21:20:01 -0.5 C 4.26 g/m*3 -0.5 C 0 km/h
948 24-11-2011 21:32:02 -0.4 C 4.29 g/m*3 -0.4 C 0 km/h
949 24-11-2011 21:44:02 -0.9 C 4.14 g/m*3 -0.9 C 0 km/h
950 24-11-2011 21:56:02 -1 C 4.11 g/m*3 -1 C 0 km/h
Sensor: Nr:Datum:Temp:Abs-Feuchte:Windchill:Wind:
Aussen-T/F 951 24-11-2011 22:08:02 -1.1 C 4.13 g/m*3 -1.1 C 0 km/h
952 24-11-2011 22:21:02 -1.2 C 4.1 g/m*3 -1.2 C 0 km/h
953 24-11-2011 22:33:02 -0.8 C 4.22 g/m*3 -0.8 C 0 km/h
954 24-11-2011 22:45:02 -1.4 C 4.04 g/m*3 -1.4 C 0 km/h
955 24-11-2011 22:57:03 -1.1 C 4.13 g/m*3 -1.1 C 0 km/h
956 24-11-2011 23:09:03 -1.1 C 4.13 g/m*3 -1.1 C 0 km/h
957 24-11-2011 23:21:03 -1.5 C 3.97 g/m*3 -1.5 C 0 km/h
958 24-11-2011 23:33:03 -1.4 C 4 g/m*3 -1.4 C 0 km/h
959 24-11-2011 23:45:03 -1.4 C 4.04 g/m*3 -1.4 C 0 km/h
960 24-11-2011 23:57:03 -1.3 C 4.07 g/m*3 -1.3 C 0 km/h
961 25-11-2011 00:09:03 -1.8 C 3.89 g/m*3 -1.8 C 0 km/h
962 25-11-2011 00:21:03 -1.8 C 3.89 g/m*3 -1.8 C 0 km/h
963 25-11-2011 00:33:03 -1.7 C 3.92 g/m*3 -1.7 C 0 km/h
964 25-11-2011 00:45:03 -1.8 C 3.89 g/m*3 -1.8 C 0 km/h
965 25-11-2011 00:57:03 -2 C 3.84 g/m*3 -2 C 0 km/h
966 25-11-2011 01:09:03 -2 C 3.84 g/m*3 -2 C 0 km/h
967 25-11-2011 01:21:03 -1.2 C 4.1 g/m*3 -1.2 C 0 km/h
968 25-11-2011 01:33:03 -1.8 C 3.93 g/m*3 -1.8 C 0 km/h
969 25-11-2011 01:45:03 -1.9 C 3.91 g/m*3 -1.9 C 0 km/h
970 25-11-2011 01:57:03 -1.7 C 3.96 g/m*3 -1.7 C 0 km/h
971 25-11-2011 02:09:03 -2 C 3.88 g/m*3 -2 C 0 km/h
972 25-11-2011 02:21:03 -2.1 C 3.85 g/m*3 -2.1 C 0 km/h
973 25-11-2011 02:33:03 -1.1 C 4.17 g/m*3 -1.1 C 0 km/h
974 25-11-2011 02:45:03 -1.7 C 3.96 g/m*3 -1.7 C 0 km/h
975 25-11-2011 02:57:03 -1.7 C 3.96 g/m*3 -1.7 C 0 km/h
Sensor: Nr:Datum:Temp:Abs-Feuchte:Windchill:Wind:
Aussen-T/F 976 25-11-2011 03:09:04 -2 C 3.88 g/m*3 -2 C 0 km/h
977 25-11-2011 03:21:04 -2.5 C 3.74 g/m*3 -2.5 C 0 km/h
978 25-11-2011 03:33:04 -2.8 C 3.63 g/m*3 -2.8 C 0 km/h
979 25-11-2011 03:45:04 -2.8 C 3.63 g/m*3 -2.8 C 0 km/h
980 25-11-2011 03:57:04 -3 C 3.57 g/m*3 -3 C 0 km/h
981 25-11-2011 04:09:04 -2.8 C 3.63 g/m*3 -2.8 C 0 km/h
982 25-11-2011 04:21:04 -2.6 C 3.68 g/m*3 -2.6 C 0 km/h
983 25-11-2011 04:33:04 -2.5 C 3.7 g/m*3 -2.5 C 0 km/h
984 25-11-2011 04:45:04 -2 C 3.84 g/m*3 -2 C 0 km/h
985 25-11-2011 04:57:04 -1.9 C 3.86 g/m*3 -1.9 C 0 km/h
986 25-11-2011 05:09:04 -2.5 C 3.7 g/m*3 -2.5 C 0 km/h
987 25-11-2011 05:21:04 -2.6 C 3.68 g/m*3 -2.6 C 0 km/h
988 25-11-2011 05:33:04 -2.9 C 3.56 g/m*3 -2.9 C 0 km/h
989 25-11-2011 05:45:04 -2.3 C 3.71 g/m*3 -2.3 C 0 km/h
990 25-11-2011 05:57:04 -2.1 C 3.81 g/m*3 -2.1 C 0 km/h
991 25-11-2011 06:09:04 -2 C 3.84 g/m*3 -2 C 0 km/h
992 25-11-2011 06:21:04 -2.2 C 3.78 g/m*3 -2.2 C 0 km/h
993 25-11-2011 06:33:04 -1.9 C 3.86 g/m*3 -1.9 C 0 km/h
994 25-11-2011 06:45:04 -1.3 C 4.07 g/m*3 -1.3 C 0 km/h
995 25-11-2011 06:57:04 -1.3 C 4.07 g/m*3 -1.3 C 0 km/h
996 25-11-2011 07:09:04 -1.1 C 4.13 g/m*3 -1.1 C 0 km/h
997 25-11-2011 07:21:05 -1.1 C 4.13 g/m*3 -1.1 C 0 km/h
998 25-11-2011 07:33:05 -1.6 C 3.99 g/m*3 -1.6 C 0 km/h
999 25-11-2011 07:45:05 -1.6 C 3.99 g/m*3 -1.6 C 0 km/h
1000 25-11-2011 07:57:05 -1.8 C 3.93 g/m*3 -1.8 C 0 km/h
Sensor: Nr:Datum:Temp:Abs-Feuchte:Windchill:Wind:
Aussen-T/F 1001 25-11-2011 08:09:02 -1.6 C 3.99 g/m*3 -1.6 C 0 km/h
1002 25-11-2011 08:21:02 -2 C 3.88 g/m*3 -2 C 0 km/h
1003 25-11-2011 08:33:02 -2.1 C 3.85 g/m*3 -2.1 C 0 km/h
1004 25-11-2011 08:45:02 -1.8 C 3.93 g/m*3 -1.8 C 0 km/h
1005 25-11-2011 08:57:03 -1.3 C 4.07 g/m*3 -1.3 C 0 km/h
1006 25-11-2011 09:09:01 -0.6 C 4.32 g/m*3 -0.6 C 0 km/h
1007 25-11-2011 09:21:02 -0.3 C 4.41 g/m*3 -0.3 C 0 km/h
1008 25-11-2011 09:33:02 -0.2 C 4.44 g/m*3 -0.2 C 0 km/h
1009 25-11-2011 09:45:02 -0.1 C 4.47 g/m*3 -0.1 C 0 km/h
1010 25-11-2011 09:57:02 0.1 C 4.54 g/m*3 0.1 C 0 km/h
1011 25-11-2011 10:09:03 0.3 C 4.6 g/m*3 0.3 C 0 km/h
1012 25-11-2011 10:21:02 0.4 C 4.63 g/m*3 0.4 C 0 km/h
1013 25-11-2011 10:33:02 0.8 C 4.71 g/m*3 0.8 C 0 km/h
1014 25-11-2011 10:45:01 0.9 C 4.74 g/m*3 0.9 C 0 km/h
1015 25-11-2011 10:57:01 1.1 C 4.7 g/m*3 1.1 C 0 km/h
1016 25-11-2011 11:09:02 0.9 C 4.64 g/m*3 0.9 C 0 km/h
1017 25-11-2011 11:21:01 1.3 C 4.72 g/m*3 1.3 C 0 km/h
1018 25-11-2011 11:33:01 1.4 C 4.69 g/m*3 1.4 C 0 km/h
1019 25-11-2011 11:45:01 1.1 C 4.6 g/m*3 1.1 C 0 km/h
1020 25-11-2011 11:57:01 0.9 C 4.54 g/m*3 0.9 C 0 km/h
1021 25-11-2011 12:09:02 1.3 C 4.66 g/m*3 1.3 C 0 km/h
1022 25-11-2011 12:21:02 1.6 C 4.76 g/m*3 1.6 C 0 km/h
1023 25-11-2011 12:33:01 1.7 C 4.74 g/m*3 1.7 C 0 km/h
1024 25-11-2011 12:45:02 2.2 C 4.84 g/m*3 2.2 C 0 km/h
1025 25-11-2011 12:57:02 2.4 C 4.8 g/m*3 2.4 C 0 km/h
Sensor: Nr:Datum:Temp:Abs-Feuchte:Windchill:Wind:
Aussen-T/F 1026 25-11-2011 13:09:01 2.3 C 4.71 g/m*3 2.3 C 0 km/h
1027 25-11-2011 13:21:02 2.6 C 4.75 g/m*3 2.6 C 0 km/h
1028 25-11-2011 13:33:01 2.8 C 4.75 g/m*3 2.8 C 0 km/h
1029 25-11-2011 13:45:02 3.4 C 4.76 g/m*3 3.4 C 0 km/h
1030 25-11-2011 13:57:02 3.7 C 4.74 g/m*3 3.7 C 0 km/h
1031 25-11-2011 14:09:02 4.2 C 4.7 g/m*3 4.2 C 0 km/h
1032 25-11-2011 14:21:02 4.6 C 4.7 g/m*3 4.6 C 0 km/h
1033 25-11-2011 14:33:03 4.6 C 4.7 g/m*3 4.6 C 0 km/h
1034 25-11-2011 14:45:02 3.7 C 4.61 g/m*3 3.7 C 0 km/h
1035 25-11-2011 14:57:03 3.6 C 4.64 g/m*3 3.6 C 0 km/h
1036 25-11-2011 15:09:01 3.5 C 4.67 g/m*3 3.5 C 0 km/h
1037 25-11-2011 15:21:02 3.7 C 4.8 g/m*3 3.7 C 0 km/h
1038 25-11-2011 15:33:02 3.5 C 4.73 g/m*3 3.5 C 0 km/h
1039 25-11-2011 15:45:02 3.3 C 4.73 g/m*3 3.3 C 0 km/h
1040 25-11-2011 15:57:02 3.3 C 4.79 g/m*3 3.3 C 0 km/h
1041 25-11-2011 16:09:03 3.2 C 4.76 g/m*3 3.2 C 0 km/h
1042 25-11-2011 16:21:02 3.3 C 4.85 g/m*3 3.3 C 0 km/h
1043 25-11-2011 16:33:02 3.2 C 4.82 g/m*3 3.2 C 0 km/h
1044 25-11-2011 16:45:01 3.1 C 4.85 g/m*3 3.1 C 0 km/h
1045 25-11-2011 16:57:01 3.2 C 4.94 g/m*3 3.2 C 0 km/h
1046 25-11-2011 17:09:02 3.2 C 4.88 g/m*3 3.2 C 0 km/h
1047 25-11-2011 17:21:01 3.3 C 4.91 g/m*3 3.3 C 0 km/h
1048 25-11-2011 17:33:02 3.4 C 4.89 g/m*3 3.4 C 0 km/h
1049 25-11-2011 17:45:01 3.4 C 4.83 g/m*3 3.4 C 0 km/h
1050 25-11-2011 17:57:01 3.4 C 4.83 g/m*3 3.4 C 0 km/h
Sensor: Nr:Datum:Temp:Abs-Feuchte:Windchill:Wind:
Aussen-T/F 1051 25-11-2011 18:09:02 3.4 C 4.83 g/m*3 3.4 C 0 km/h
1052 25-11-2011 18:21:02 3.4 C 4.89 g/m*3 3.4 C 0 km/h
1053 25-11-2011 18:33:01 3.3 C 4.79 g/m*3 3.3 C 0 km/h
1054 25-11-2011 18:45:02 3.4 C 4.89 g/m*3 3.4 C 0 km/h
1055 25-11-2011 18:57:02 3.4 C 4.89 g/m*3 3.4 C 0 km/h
1056 25-11-2011 19:09:01 3.3 C 4.91 g/m*3 3.3 C 0 km/h
1057 25-11-2011 19:21:02 3.6 C 5.01 g/m*3 3.6 C 0 km/h
1058 25-11-2011 19:33:01 3.4 C 4.89 g/m*3 3.4 C 0 km/h
1059 25-11-2011 19:45:02 3.6 C 5.01 g/m*3 3.6 C 0 km/h
1060 25-11-2011 19:57:02 3.8 C 5.02 g/m*3 3.8 C 0 km/h
1061 25-11-2011 20:09:01 3.9 C 5.05 g/m*3 3.9 C 0 km/h
1062 25-11-2011 20:21:01 4 C 5.02 g/m*3 4 C 0 km/h
1063 25-11-2011 20:33:01 4.1 C 5.06 g/m*3 4.1 C 0 km/h
1064 25-11-2011 20:45:02 4 C 4.96 g/m*3 4 C 0 km/h
1065 25-11-2011 20:57:03 4 C 5.02 g/m*3 4 C 0 km/h
1066 25-11-2011 21:09:01 3.8 C 5.02 g/m*3 3.8 C 0 km/h
1067 25-11-2011 21:21:02 3.7 C 4.99 g/m*3 3.7 C 0 km/h
1068 25-11-2011 21:33:02 3.7 C 5.05 g/m*3 3.7 C 0 km/h
1069 25-11-2011 21:45:01 3.7 C 5.05 g/m*3 3.7 C 0 km/h
1070 25-11-2011 21:57:01 3.7 C 5.11 g/m*3 3.7 C 0 km/h
1071 25-11-2011 22:09:02 3.9 C 5.18 g/m*3 3.9 C 0 km/h
1072 25-11-2011 22:21:01 4 C 5.15 g/m*3 4 C 0 km/h
1073 25-11-2011 22:33:02 4 C 5.15 g/m*3 4 C 0 km/h
1074 25-11-2011 22:45:02 4 C 5.15 g/m*3 4 C 0 km/h
1075 25-11-2011 22:57:02 4.1 C 5.25 g/m*3 4.1 C 0 km/h
Sensor: Nr:Datum:Temp:Abs-Feuchte:Windchill:Wind:
Aussen-T/F 1076 25-11-2011 23:09:02 4.2 C 5.28 g/m*3 4.2 C 0 km/h
1077 25-11-2011 23:21:01 4.3 C 5.32 g/m*3 4.3 C 0 km/h
1078 25-11-2011 23:33:02 4.4 C 5.29 g/m*3 4.4 C 0 km/h
1079 25-11-2011 23:45:02 4.4 C 5.29 g/m*3 4.4 C 0 km/h
1080 25-11-2011 23:57:02 4.4 C 5.29 g/m*3 4.4 C 0 km/h
1081 26-11-2011 00:09:02 4.1 C 5.18 g/m*3 4.1 C 0 km/h
1082 26-11-2011 00:21:02 3.6 C 5.14 g/m*3 3.6 C 0 km/h
1083 26-11-2011 00:33:01 3.7 C 5.23 g/m*3 3.7 C 0 km/h
1084 26-11-2011 00:45:02 4 C 5.34 g/m*3 4 C 0 km/h
1085 26-11-2011 00:57:03 3.2 C 5.06 g/m*3 3.2 C 0 km/h
1086 26-11-2011 01:09:01 2.7 C 5.01 g/m*3 2.7 C 0 km/h
1087 26-11-2011 01:21:01 3.7 C 5.42 g/m*3 3.7 C 0 km/h
1088 26-11-2011 01:33:02 3.7 C 5.42 g/m*3 3.7 C 0 km/h
1089 26-11-2011 01:45:02 3 C 5.11 g/m*3 3 C 0 km/h
1090 26-11-2011 01:57:02 3.2 C 5.3 g/m*3 3.2 C 0 km/h
1091 26-11-2011 02:09:02 3.6 C 5.45 g/m*3 3.6 C 0 km/h
1092 26-11-2011 02:21:02 3.5 C 5.41 g/m*3 3.5 C 0 km/h
1093 26-11-2011 02:33:02 3.7 C 5.48 g/m*3 3.7 C 0 km/h
1094 26-11-2011 02:45:01 4.3 C 5.58 g/m*3 4.3 C 0 km/h
1095 26-11-2011 02:57:01 4.4 C 5.55 g/m*3 4.4 C 0 km/h
1096 26-11-2011 03:09:01 4.4 C 5.42 g/m*3 4.4 C 0 km/h
1097 26-11-2011 03:21:02 4.5 C 5.46 g/m*3 4.5 C 0 km/h
1098 26-11-2011 03:33:01 4.6 C 5.49 g/m*3 4.6 C 0 km/h
1099 26-11-2011 03:45:01 4.6 C 5.43 g/m*3 4.6 C 0 km/h
1100 26-11-2011 03:57:01 4.9 C 5.54 g/m*3 4.9 C 0 km/h
Sensor: Nr:Datum:Temp:Abs-Feuchte:Windchill:Wind:
Aussen-T/F 1101 26-11-2011 04:09:02 4.8 C 5.43 g/m*3 4.8 C 0 km/h
1102 26-11-2011 04:21:01 4.8 C 5.5 g/m*3 4.8 C 0 km/h
1103 26-11-2011 04:33:02 4.6 C 5.43 g/m*3 4.6 C 0 km/h
1104 26-11-2011 04:45:01 4.3 C 5.38 g/m*3 4.3 C 0 km/h
1105 26-11-2011 04:57:01 4.2 C 5.41 g/m*3 4.2 C 0 km/h
1106 26-11-2011 05:09:02 4.7 C 5.6 g/m*3 4.7 C 0 km/h
1107 26-11-2011 05:21:01 4.8 C 5.57 g/m*3 4.8 C 0 km/h
1108 26-11-2011 05:33:01 4.5 C 5.46 g/m*3 4.5 C 0 km/h
1109 26-11-2011 05:45:01 4.3 C 5.45 g/m*3 4.3 C 0 km/h
1110 26-11-2011 05:57:01 4.3 C 5.45 g/m*3 4.3 C 0 km/h
1111 26-11-2011 06:09:01 4.3 C 5.51 g/m*3 4.3 C 0 km/h
1112 26-11-2011 06:21:01 4.3 C 5.51 g/m*3 4.3 C 0 km/h
1113 26-11-2011 06:33:01 4.1 C 5.44 g/m*3 4.1 C 0 km/h
1114 26-11-2011 06:45:01 4.4 C 5.62 g/m*3 4.4 C 0 km/h
1115 26-11-2011 06:57:01 4.3 C 5.58 g/m*3 4.3 C 0 km/h
1116 26-11-2011 07:09:01 4.5 C 5.59 g/m*3 4.5 C 0 km/h
1117 26-11-2011 07:21:02 4.7 C 5.6 g/m*3 4.7 C 0 km/h
1118 26-11-2011 07:33:01 4.5 C 5.52 g/m*3 4.5 C 0 km/h
1119 26-11-2011 07:45:02 4.2 C 5.41 g/m*3 4.2 C 0 km/h
1120 26-11-2011 07:57:02 4.3 C 5.51 g/m*3 4.3 C 0 km/h
1121 26-11-2011 08:09:01 4.3 C 5.51 g/m*3 4.3 C 0 km/h
1122 26-11-2011 08:21:01 4.4 C 5.55 g/m*3 4.4 C 0 km/h
1123 26-11-2011 08:33:02 5 C 5.71 g/m*3 5 C 0 km/h
1124 26-11-2011 08:45:01 4.7 C 5.6 g/m*3 4.7 C 0 km/h
1125 26-11-2011 08:57:01 4.8 C 5.63 g/m*3 4.8 C 0 km/h
Sensor: Nr:Datum:Temp:Abs-Feuchte:Windchill:Wind:
Aussen-T/F 1126 26-11-2011 09:09:01 5 C 5.57 g/m*3 5 C 0 km/h
1127 26-11-2011 09:21:01 5.1 C 5.61 g/m*3 5.1 C 0 km/h
1128 26-11-2011 09:33:02 5 C 5.5 g/m*3 5 C 0 km/h
1129 26-11-2011 09:45:01 5.6 C 5.59 g/m*3 5.6 C 0 km/h
1130 26-11-2011 09:57:01 5.7 C 5.55 g/m*3 5.7 C 0 km/h
1131 26-11-2011 10:09:02 6.3 C 5.48 g/m*3 6.3 C 0 km/h
1132 26-11-2011 10:21:01 6.4 C 5.44 g/m*3 6.4 C 0 km/h
1133 26-11-2011 10:33:01 6.7 C 5.47 g/m*3 6.7 C 0 km/h
1134 26-11-2011 10:45:01 6.9 C 5.47 g/m*3 6.9 C 0 km/h
1135 26-11-2011 10:57:01 7 C 5.42 g/m*3 7 C 0 km/h
1136 26-11-2011 11:09:01 7.2 C 5.49 g/m*3 7.2 C 0 km/h
1137 26-11-2011 11:21:01 7.3 C 5.45 g/m*3 7.3 C 0 km/h
1138 26-11-2011 11:33:01 7.3 C 5.53 g/m*3 7.3 C 0 km/h
1139 26-11-2011 11:45:01 7.4 C 5.57 g/m*3 7.4 C 0 km/h
1140 26-11-2011 11:57:01 7.5 C 5.6 g/m*3 7.5 C 0 km/h
1141 26-11-2011 12:09:01 7.4 C 5.57 g/m*3 7.4 C 0 km/h
1142 26-11-2011 12:21:02 7.6 C 5.72 g/m*3 7.6 C 0 km/h
1143 26-11-2011 12:33:01 7.5 C 5.68 g/m*3 7.5 C 0 km/h
1144 26-11-2011 12:45:02 7.7 C 5.68 g/m*3 7.7 C 0 km/h
1145 26-11-2011 12:57:02 7.9 C 5.75 g/m*3 7.9 C 0 km/h
1146 26-11-2011 13:09:01 7.9 C 5.75 g/m*3 7.9 C 0 km/h
1147 26-11-2011 13:21:01 8 C 5.7 g/m*3 8 C 0 km/h
1148 26-11-2011 13:33:01 8.1 C 5.74 g/m*3 8.1 C 0 km/h
1149 26-11-2011 13:45:01 8.1 C 5.66 g/m*3 8.1 C 0 km/h
1150 26-11-2011 13:57:02 8.2 C 5.69 g/m*3 8.2 C 0 km/h
Sensor: Nr:Datum:Temp:Abs-Feuchte:Windchill:Wind:
Aussen-T/F 1151 26-11-2011 14:09:01 8.4 C 5.77 g/m*3 8.4 C 0 km/h
1152 26-11-2011 14:21:01 8.2 C 5.69 g/m*3 8.2 C 0 km/h
1153 26-11-2011 14:33:02 8.2 C 5.69 g/m*3 8.2 C 0 km/h
1154 26-11-2011 14:45:01 8.2 C 5.69 g/m*3 8.2 C 0 km/h
1155 26-11-2011 14:57:01 8.2 C 5.69 g/m*3 8.2 C 0 km/h
1156 26-11-2011 15:09:02 8.5 C 5.81 g/m*3 8.5 C 0 km/h
1157 26-11-2011 15:21:01 8.2 C 5.69 g/m*3 8.2 C 0 km/h
1158 26-11-2011 15:33:02 8 C 5.7 g/m*3 8 C 0 km/h
1159 26-11-2011 15:45:01 8 C 5.7 g/m*3 8 C 0 km/h
1160 26-11-2011 15:57:01 8 C 5.7 g/m*3 8 C 0 km/h
1161 26-11-2011 16:09:02 8.1 C 5.74 g/m*3 8.1 C 0 km/h
1162 26-11-2011 16:21:01 7.8 C 5.79 g/m*3 7.8 C 0 km/h
1163 26-11-2011 16:33:01 7.8 C 5.88 g/m*3 7.8 C 0 km/h
1164 26-11-2011 16:45:01 7.8 C 5.79 g/m*3 7.8 C 0 km/h
1165 26-11-2011 16:57:01 7.7 C 5.76 g/m*3 7.7 C 0 km/h
1166 26-11-2011 17:09:01 8.1 C 5.74 g/m*3 8.1 C 0 km/h
1167 26-11-2011 17:21:02 8.3 C 5.73 g/m*3 8.3 C 0 km/h
1168 26-11-2011 17:33:01 8.1 C 5.66 g/m*3 8.1 C 0 km/h
1169 26-11-2011 17:45:02 8.1 C 5.66 g/m*3 8.1 C 0 km/h
1170 26-11-2011 17:57:02 7.9 C 5.67 g/m*3 7.9 C 0 km/h
1171 26-11-2011 18:09:01 8 C 5.62 g/m*3 8 C 0 km/h
1172 26-11-2011 18:21:02 7.9 C 5.75 g/m*3 7.9 C 0 km/h
1173 26-11-2011 18:33:01 8.2 C 5.69 g/m*3 8.2 C 0 km/h
1174 26-11-2011 18:45:02 8.2 C 5.61 g/m*3 8.2 C 0 km/h
1175 26-11-2011 18:57:02 8.2 C 5.61 g/m*3 8.2 C 0 km/h
Sensor: Nr:Datum:Temp:Abs-Feuchte:Windchill:Wind:
Aussen-T/F 1176 26-11-2011 19:09:01 8.3 C 5.65 g/m*3 8.3 C 0 km/h
1177 26-11-2011 19:21:01 8.2 C 5.53 g/m*3 8.2 C 0 km/h
1178 26-11-2011 19:33:02 8.2 C 5.53 g/m*3 8.2 C 0 km/h
1179 26-11-2011 19:45:01 8.1 C 5.57 g/m*3 8.1 C 0 km/h
1180 26-11-2011 19:57:01 7.9 C 5.59 g/m*3 7.9 C 0 km/h
1181 26-11-2011 20:09:01 7.9 C 5.59 g/m*3 7.9 C 0 km/h
1182 26-11-2011 20:21:01 7.8 C 5.55 g/m*3 7.8 C 0 km/h
1183 26-11-2011 20:33:02 7.7 C 5.43 g/m*3 7.7 C 0 km/h
1184 26-11-2011 20:45:01 7.6 C 5.4 g/m*3 7.6 C 0 km/h
1185 26-11-2011 20:57:01 7.6 C 5.4 g/m*3 7.6 C 0 km/h
1186 26-11-2011 21:09:02 7.5 C 5.44 g/m*3 7.5 C 0 km/h
1187 26-11-2011 21:21:01 7.4 C 5.41 g/m*3 7.4 C 0 km/h
1188 26-11-2011 21:33:01 7.4 C 5.49 g/m*3 7.4 C 0 km/h
1189 26-11-2011 21:45:01 7.3 C 5.45 g/m*3 7.3 C 0 km/h
1190 26-11-2011 21:57:01 7 C 5.27 g/m*3 7 C 0 km/h
1191 26-11-2011 22:09:02 7 C 5.35 g/m*3 7 C 0 km/h
1192 26-11-2011 22:21:01 6.8 C 5.28 g/m*3 6.8 C 0 km/h
1193 26-11-2011 22:33:01 6.7 C 5.17 g/m*3 6.7 C 0 km/h
1194 26-11-2011 22:45:01 6.4 C 5.07 g/m*3 6.4 C 0 km/h
1195 26-11-2011 22:57:01 6.5 C 5.02 g/m*3 6.5 C 0 km/h
1196 26-11-2011 23:09:01 6.7 C 5.09 g/m*3 6.7 C 0 km/h
1197 26-11-2011 23:21:02 6.9 C 5.08 g/m*3 6.9 C 0 km/h
1198 26-11-2011 23:33:01 7 C 4.96 g/m*3 7 C 0 km/h
1199 26-11-2011 23:45:02 7 C 4.96 g/m*3 7 C 0 km/h
1200 26-11-2011 23:57:02 6.9 C 5.16 g/m*3 6.9 C 0 km/h
Sensor: Nr:Datum:Temp:Abs-Feuchte:Windchill:Wind:
Aussen-T/F 1201 27-11-2011 00:09:01 7 C 5.04 g/m*3 7 C 0 km/h
1202 27-11-2011 00:21:01 7 C 5.11 g/m*3 7 C 0 km/h
1203 27-11-2011 00:33:01 7 C 5.11 g/m*3 7 C 0 km/h
1204 27-11-2011 00:45:01 7 C 5.11 g/m*3 7 C 0 km/h
1205 27-11-2011 00:57:01 7 C 5.11 g/m*3 7 C 0 km/h
1206 27-11-2011 01:09:01 6.9 C 5.16 g/m*3 6.9 C 0 km/h
1207 27-11-2011 01:21:02 7 C 5.11 g/m*3 7 C 0 km/h
1208 27-11-2011 01:33:01 7 C 5.19 g/m*3 7 C 0 km/h
1209 27-11-2011 01:45:02 7.1 C 5.15 g/m*3 7.1 C 0 km/h
1210 27-11-2011 01:57:02 7 C 5.11 g/m*3 7 C 0 km/h
1211 27-11-2011 02:09:01 7 C 5.19 g/m*3 7 C 0 km/h
1212 27-11-2011 02:21:02 7 C 5.19 g/m*3 7 C 0 km/h
1213 27-11-2011 02:33:01 7 C 5.19 g/m*3 7 C 0 km/h
1214 27-11-2011 02:46:06 6.9 C 5.23 g/m*3 6.9 C 0 km/h
1215 27-11-2011 02:58:06 7 C 5.19 g/m*3 7 C 0 km/h
1216 27-11-2011 03:10:05 7 C 5.19 g/m*3 7 C 0 km/h
1217 27-11-2011 03:22:05 6.9 C 5.31 g/m*3 6.9 C 0 km/h
1218 27-11-2011 03:34:01 6.9 C 5.31 g/m*3 6.9 C 0 km/h
1219 27-11-2011 03:46:01 6.9 C 5.31 g/m*3 6.9 C 0 km/h
1220 27-11-2011 03:58:01 7 C 5.27 g/m*3 7 C 0 km/h
1221 27-11-2011 04:10:02 6.9 C 5.31 g/m*3 6.9 C 0 km/h
1222 27-11-2011 04:22:02 6.9 C 5.31 g/m*3 6.9 C 0 km/h
1223 27-11-2011 04:34:01 6.8 C 5.28 g/m*3 6.8 C 0 km/h
1224 27-11-2011 04:46:02 6.8 C 5.35 g/m*3 6.8 C 0 km/h
1225 27-11-2011 04:58:02 6.7 C 5.32 g/m*3 6.7 C 0 km/h
Sensor: Nr:Datum:Temp:Abs-Feuchte:Windchill:Wind:
Aussen-T/F 1226 27-11-2011 05:10:01 6.7 C 5.32 g/m*3 6.7 C 0 km/h
1227 27-11-2011 05:22:02 6.6 C 5.21 g/m*3 6.6 C 0 km/h
1228 27-11-2011 05:34:01 6.4 C 5.22 g/m*3 6.4 C 0 km/h
1229 27-11-2011 05:46:02 6.4 C 5.22 g/m*3 6.4 C 0 km/h
1230 27-11-2011 05:58:02 6.4 C 5.22 g/m*3 6.4 C 0 km/h
1231 27-11-2011 06:10:02 6.4 C 5.22 g/m*3 6.4 C 0 km/h
1232 27-11-2011 06:22:02 6.5 C 5.25 g/m*3 6.5 C 0 km/h
1233 27-11-2011 06:34:02 6.3 C 5.26 g/m*3 6.3 C 0 km/h
1234 27-11-2011 06:46:01 6.4 C 5.22 g/m*3 6.4 C 0 km/h
1235 27-11-2011 06:58:01 6.3 C 5.26 g/m*3 6.3 C 0 km/h
1236 27-11-2011 07:10:01 6.4 C 5.22 g/m*3 6.4 C 0 km/h
1237 27-11-2011 07:22:01 6.5 C 5.25 g/m*3 6.5 C 0 km/h
1238 27-11-2011 07:34:02 6.4 C 5.14 g/m*3 6.4 C 0 km/h
1239 27-11-2011 07:46:02 6.6 C 5.21 g/m*3 6.6 C 0 km/h
1240 27-11-2011 07:58:02 6.6 C 5.13 g/m*3 6.6 C 0 km/h
1241 27-11-2011 08:10:02 6.6 C 5.13 g/m*3 6.6 C 0 km/h
1242 27-11-2011 08:22:01 6.4 C 5.07 g/m*3 6.4 C 0 km/h
1243 27-11-2011 08:34:02 6.4 C 4.99 g/m*3 6.4 C 0 km/h
1244 27-11-2011 08:46:02 6.5 C 4.95 g/m*3 6.5 C 0 km/h
1245 27-11-2011 08:58:02 6.8 C 5.05 g/m*3 6.8 C 0 km/h
1246 27-11-2011 09:10:02 7.1 C 4.91 g/m*3 7.1 C 0 km/h
1247 27-11-2011 09:22:01 7.2 C 4.87 g/m*3 7.2 C 0 km/h
1248 27-11-2011 09:34:02 7 C 4.8 g/m*3 7 C 0 km/h
1249 27-11-2011 09:46:01 7.2 C 4.87 g/m*3 7.2 C 0 km/h
1250 27-11-2011 09:58:01 7.3 C 4.9 g/m*3 7.3 C 0 km/h
Sensor: Nr:Datum:Temp:Abs-Feuchte:Windchill:Wind:
Aussen-T/F 1251 27-11-2011 10:10:02 7.6 C 4.91 g/m*3 7.6 C 0 km/h
1252 27-11-2011 10:22:02 7.7 C 4.95 g/m*3 7.7 C 0 km/h
1253 27-11-2011 10:34:02 7.9 C 4.93 g/m*3 7.9 C 0 km/h
1254 27-11-2011 10:46:02 8 C 4.88 g/m*3 8 C 0 km/h
1255 27-11-2011 10:58:02 8 C 4.88 g/m*3 8 C 0 km/h
1256 27-11-2011 11:10:01 7.9 C 4.93 g/m*3 7.9 C 0 km/h
1257 27-11-2011 11:22:02 8 C 4.96 g/m*3 8 C 0 km/h
1258 27-11-2011 11:34:01 8 C 5.04 g/m*3 8 C 0 km/h
1259 27-11-2011 11:46:01 8.1 C 5.08 g/m*3 8.1 C 0 km/h
1260 27-11-2011 11:58:01 8.1 C 5.16 g/m*3 8.1 C 0 km/h
1261 27-11-2011 12:10:01 8.2 C 5.19 g/m*3 8.2 C 0 km/h
1262 27-11-2011 12:22:01 8.5 C 5.29 g/m*3 8.5 C 0 km/h
1263 27-11-2011 12:34:02 8.4 C 5.26 g/m*3 8.4 C 0 km/h
1264 27-11-2011 12:46:02 8.5 C 5.29 g/m*3 8.5 C 0 km/h
1265 27-11-2011 12:58:02 8.7 C 5.36 g/m*3 8.7 C 0 km/h
1266 27-11-2011 13:10:02 9 C 5.38 g/m*3 9 C 0 km/h
1267 27-11-2011 13:22:01 9.3 C 5.48 g/m*3 9.3 C 0 km/h
1268 27-11-2011 13:34:02 9.6 C 5.59 g/m*3 9.6 C 0 km/h
1269 27-11-2011 13:46:02 9.1 C 5.5 g/m*3 9.1 C 0 km/h
1270 27-11-2011 13:58:02 8.9 C 5.69 g/m*3 8.9 C 0 km/h
1271 27-11-2011 14:10:02 8.9 C 5.69 g/m*3 8.9 C 0 km/h
1272 27-11-2011 14:22:02 9 C 5.73 g/m*3 9 C 0 km/h
1273 27-11-2011 14:34:02 8.9 C 5.87 g/m*3 8.9 C 0 km/h
1274 27-11-2011 14:46:02 8.7 C 5.97 g/m*3 8.7 C 0 km/h
1275 27-11-2011 14:58:02 8.7 C 5.97 g/m*3 8.7 C 0 km/h
Sensor: Nr:Datum:Temp:Abs-Feuchte:Windchill:Wind:
Aussen-T/F 1276 27-11-2011 15:10:02 8.6 C 6.02 g/m*3 8.6 C 0 km/h
1277 27-11-2011 15:22:02 8.7 C 6.05 g/m*3 8.7 C 0 km/h
1278 27-11-2011 15:34:02 8.8 C 6.18 g/m*3 8.8 C 0 km/h
1279 27-11-2011 15:46:02 8.8 C 6.18 g/m*3 8.8 C 0 km/h
1280 27-11-2011 15:58:02 8.9 C 6.22 g/m*3 8.9 C 0 km/h
1281 27-11-2011 16:10:02 8.6 C 6.19 g/m*3 8.6 C 0 km/h
1282 27-11-2011 16:22:02 8.6 C 6.44 g/m*3 8.6 C 0 km/h
1283 27-11-2011 16:34:01 8.5 C 6.4 g/m*3 8.5 C 0 km/h
1284 27-11-2011 16:46:02 8.7 C 6.49 g/m*3 8.7 C 0 km/h
1285 27-11-2011 16:58:02 8.3 C 6.41 g/m*3 8.3 C 0 km/h
1286 27-11-2011 17:10:01 8.7 C 6.66 g/m*3 8.7 C 0 km/h
1287 27-11-2011 17:22:02 8.6 C 6.62 g/m*3 8.6 C 0 km/h
1288 27-11-2011 17:34:02 8.8 C 6.7 g/m*3 8.8 C 0 km/h
1289 27-11-2011 17:46:02 8.9 C 6.66 g/m*3 8.9 C 0 km/h
1290 27-11-2011 17:58:02 8.6 C 6.53 g/m*3 8.6 C 0 km/h
1291 27-11-2011 18:10:02 8.6 C 6.62 g/m*3 8.6 C 0 km/h
1292 27-11-2011 18:22:02 8.8 C 6.7 g/m*3 8.8 C 0 km/h
1293 27-11-2011 18:34:02 9.1 C 6.65 g/m*3 9.1 C 0 km/h
1294 27-11-2011 18:46:01 9.3 C 6.74 g/m*3 9.3 C 0 km/h
1295 27-11-2011 18:58:01 8.7 C 6.75 g/m*3 8.7 C 0 km/h
1296 27-11-2011 19:10:02 8.7 C 7.01 g/m*3 8.7 C 0 km/h
1297 27-11-2011 19:22:01 8.9 C 7.18 g/m*3 8.9 C 0 km/h
1298 27-11-2011 19:34:02 8.8 C 7.14 g/m*3 8.8 C 0 km/h
1299 27-11-2011 19:46:01 9.1 C 7.19 g/m*3 9.1 C 0 km/h
1300 27-11-2011 19:58:01 9.1 C 7.01 g/m*3 9.1 C 0 km/h
Sensor: Nr:Datum:Temp:Abs-Feuchte:Windchill:Wind:
Aussen-T/F 1301 27-11-2011 20:10:02 8.8 C 6.88 g/m*3 8.8 C 0 km/h
1302 27-11-2011 20:22:01 8.6 C 6.87 g/m*3 8.6 C 0 km/h
1303 27-11-2011 20:34:02 7.9 C 6.65 g/m*3 7.9 C 0 km/h
1304 27-11-2011 20:46:01 7 C 6.35 g/m*3 7 C 0 km/h
1305 27-11-2011 20:58:01 7.2 C 6.52 g/m*3 7.2 C 0 km/h
1306 27-11-2011 21:10:02 6.7 C 6.38 g/m*3 6.7 C 0 km/h
1307 27-11-2011 21:22:02 6.6 C 6.27 g/m*3 6.6 C 0 km/h
1308 27-11-2011 21:34:01 6.4 C 6.26 g/m*3 6.4 C 0 km/h
1309 27-11-2011 21:46:02 6.6 C 6.27 g/m*3 6.6 C 0 km/h
1310 27-11-2011 21:58:02 6.5 C 6.07 g/m*3 6.5 C 0 km/h
1311 27-11-2011 22:10:01 5.9 C 5.91 g/m*3 5.9 C 0 km/h
1312 27-11-2011 22:22:02 5.8 C 5.87 g/m*3 5.8 C 0 km/h
1313 27-11-2011 22:34:01 5.8 C 5.87 g/m*3 5.8 C 0 km/h
1314 27-11-2011 22:46:02 4.7 C 5.46 g/m*3 4.7 C 0 km/h
1315 27-11-2011 22:58:02 4.1 C 5.31 g/m*3 4.1 C 0 km/h
1316 27-11-2011 23:10:02 4.8 C 5.7 g/m*3 4.8 C 0 km/h
1317 27-11-2011 23:22:02 4.5 C 5.59 g/m*3 4.5 C 0 km/h
1318 27-11-2011 23:34:03 4 C 5.47 g/m*3 4 C 0 km/h
1319 27-11-2011 23:46:02 3.9 C 5.49 g/m*3 3.9 C 0 km/h
1320 27-11-2011 23:58:02 3.2 C 5.24 g/m*3 3.2 C 0 km/h
1321 28-11-2011 00:10:02 2.8 C 5.16 g/m*3 2.8 C 0 km/h
1322 28-11-2011 00:22:01 3.3 C 5.34 g/m*3 3.3 C 0 km/h
1323 28-11-2011 00:34:02 2.8 C 5.22 g/m*3 2.8 C 0 km/h
1324 28-11-2011 00:46:01 2.7 C 5.19 g/m*3 2.7 C 0 km/h
1325 28-11-2011 00:58:01 2.3 C 5.05 g/m*3 2.3 C 0 km/h
Sensor: Nr:Datum:Temp:Abs-Feuchte:Windchill:Wind:
Aussen-T/F 1326 28-11-2011 01:10:02 2.6 C 5.15 g/m*3 2.6 C 0 km/h
1327 28-11-2011 01:22:02 2.5 C 5.17 g/m*3 2.5 C 0 km/h
1328 28-11-2011 01:34:01 3 C 5.35 g/m*3 3 C 0 km/h
1329 28-11-2011 01:46:02 2.8 C 5.34 g/m*3 2.8 C 0 km/h
1330 28-11-2011 01:58:02 2.3 C 5.16 g/m*3 2.3 C 0 km/h
1331 28-11-2011 02:10:01 2.1 C 5.09 g/m*3 2.1 C 0 km/h
1332 28-11-2011 02:22:02 2.1 C 5.09 g/m*3 2.1 C 0 km/h
1333 28-11-2011 02:34:01 2.1 C 5.09 g/m*3 2.1 C 0 km/h
1334 28-11-2011 02:46:02 2.2 C 5.13 g/m*3 2.2 C 0 km/h
1335 28-11-2011 02:58:02 1.3 C 4.82 g/m*3 1.3 C 0 km/h
1336 28-11-2011 03:10:01 1.5 C 4.94 g/m*3 1.5 C 0 km/h
1337 28-11-2011 03:22:01 1.5 C 4.94 g/m*3 1.5 C 0 km/h
1338 28-11-2011 03:34:02 1.7 C 5.01 g/m*3 1.7 C 0 km/h
1339 28-11-2011 03:46:02 1.2 C 4.84 g/m*3 1.2 C 0 km/h
1340 28-11-2011 03:58:02 1.2 C 4.84 g/m*3 1.2 C 0 km/h
1341 28-11-2011 04:10:01 0.7 C 4.68 g/m*3 0.7 C 0 km/h
1342 28-11-2011 04:22:02 0.4 C 4.63 g/m*3 0.4 C 0 km/h
1343 28-11-2011 04:34:01 0.3 C 4.6 g/m*3 0.3 C 0 km/h
1344 28-11-2011 04:46:02 0.9 C 4.79 g/m*3 0.9 C 0 km/h
1345 28-11-2011 04:58:02 0.5 C 4.66 g/m*3 0.5 C 0 km/h
1346 28-11-2011 05:10:01 0.1 C 4.54 g/m*3 0.1 C 0 km/h
1347 28-11-2011 05:22:01 -0.2 C 4.44 g/m*3 -0.2 C 0 km/h
1348 28-11-2011 05:34:02 0.4 C 4.63 g/m*3 0.4 C 0 km/h
1349 28-11-2011 05:46:01 0.3 C 4.6 g/m*3 0.3 C 0 km/h
1350 28-11-2011 05:58:01 0.1 C 4.54 g/m*3 0.1 C 0 km/h
Sensor: Nr:Datum:Temp:Abs-Feuchte:Windchill:Wind:
Aussen-T/F 1351 28-11-2011 06:10:02 0 C 4.51 g/m*3 0 C 0 km/h
1352 28-11-2011 06:22:01 0 C 4.51 g/m*3 0 C 0 km/h
1353 28-11-2011 06:34:01 0 C 4.51 g/m*3 0 C 0 km/h
1354 28-11-2011 06:46:01 -0.1 C 4.47 g/m*3 -0.1 C 0 km/h
1355 28-11-2011 06:58:01 -0.3 C 4.41 g/m*3 -0.3 C 0 km/h
1356 28-11-2011 07:10:02 -0.2 C 4.49 g/m*3 -0.2 C 0 km/h
1357 28-11-2011 07:22:01 0.1 C 4.59 g/m*3 0.1 C 0 km/h
1358 28-11-2011 07:34:01 0 C 4.55 g/m*3 0 C 0 km/h
1359 28-11-2011 07:46:01 0 C 4.55 g/m*3 0 C 0 km/h
1360 28-11-2011 07:58:01 -0.2 C 4.49 g/m*3 -0.2 C 0 km/h
1361 28-11-2011 08:10:01 -0.1 C 4.52 g/m*3 -0.1 C 0 km/h
1362 28-11-2011 08:22:02 0.1 C 4.59 g/m*3 0.1 C 0 km/h
1363 28-11-2011 08:34:01 0 C 4.55 g/m*3 0 C 0 km/h
1364 28-11-2011 08:46:02 -0.2 C 4.49 g/m*3 -0.2 C 0 km/h
1365 28-11-2011 08:58:02 -0.2 C 4.49 g/m*3 -0.2 C 0 km/h
1366 28-11-2011 09:10:01 -0.2 C 4.49 g/m*3 -0.2 C 0 km/h
1367 28-11-2011 09:22:02 -0.2 C 4.49 g/m*3 -0.2 C 0 km/h
1368 28-11-2011 09:34:01 -0.1 C 4.52 g/m*3 -0.1 C 0 km/h
1369 28-11-2011 09:46:01 -0.2 C 4.49 g/m*3 -0.2 C 0 km/h
1370 28-11-2011 09:58:02 0 C 4.55 g/m*3 0 C 0 km/h
1371 28-11-2011 10:10:01 0.3 C 4.65 g/m*3 0.3 C 0 km/h
1372 28-11-2011 10:22:01 0.5 C 4.71 g/m*3 0.5 C 0 km/h
1373 28-11-2011 10:34:02 0.4 C 4.68 g/m*3 0.4 C 0 km/h
1374 28-11-2011 10:46:01 0.7 C 4.78 g/m*3 0.7 C 0 km/h
1375 28-11-2011 10:58:01 0.7 C 4.78 g/m*3 0.7 C 0 km/h
Sensor: Nr:Datum:Temp:Abs-Feuchte:Windchill:Wind:
Aussen-T/F 1376 28-11-2011 11:10:02 0.8 C 4.81 g/m*3 0.8 C 0 km/h
1377 28-11-2011 11:22:01 1 C 4.88 g/m*3 1 C 0 km/h
1378 28-11-2011 11:34:01 0.8 C 4.81 g/m*3 0.8 C 0 km/h
1379 28-11-2011 11:46:01 1.3 C 4.93 g/m*3 1.3 C 0 km/h
1380 28-11-2011 11:58:01 1.4 C 4.96 g/m*3 1.4 C 0 km/h
1381 28-11-2011 12:10:02 1.8 C 5.1 g/m*3 1.8 C 0 km/h
1382 28-11-2011 12:22:01 1.8 C 5.1 g/m*3 1.8 C 0 km/h
1383 28-11-2011 12:34:01 2.1 C 5.15 g/m*3 2.1 C 0 km/h
1384 28-11-2011 12:46:01 2.1 C 5.15 g/m*3 2.1 C 0 km/h
1385 28-11-2011 12:58:01 2.3 C 5.22 g/m*3 2.3 C 0 km/h
1386 28-11-2011 13:10:01 2.1 C 5.09 g/m*3 2.1 C 0 km/h
1387 28-11-2011 13:22:02 2.6 C 5.27 g/m*3 2.6 C 0 km/h
1388 28-11-2011 13:34:01 2.7 C 5.3 g/m*3 2.7 C 0 km/h
1389 28-11-2011 13:46:02 2.8 C 5.34 g/m*3 2.8 C 0 km/h
1390 28-11-2011 13:58:02 2.6 C 5.21 g/m*3 2.6 C 0 km/h
1391 28-11-2011 14:10:01 2.8 C 5.28 g/m*3 2.8 C 0 km/h
1392 28-11-2011 14:22:01 2.8 C 5.28 g/m*3 2.8 C 0 km/h
1393 28-11-2011 14:34:01 2.8 C 5.28 g/m*3 2.8 C 0 km/h
1394 28-11-2011 14:46:01 2.9 C 5.32 g/m*3 2.9 C 0 km/h
1395 28-11-2011 14:58:01 2.9 C 5.32 g/m*3 2.9 C 0 km/h
1396 28-11-2011 15:10:01 2.8 C 5.28 g/m*3 2.8 C 0 km/h
1397 28-11-2011 15:22:02 2.7 C 5.24 g/m*3 2.7 C 0 km/h
1398 28-11-2011 15:34:01 2.5 C 5.23 g/m*3 2.5 C 0 km/h
1399 28-11-2011 15:46:02 2.4 C 5.2 g/m*3 2.4 C 0 km/h
1400 28-11-2011 15:58:02 2.3 C 5.16 g/m*3 2.3 C 0 km/h
Sensor: Nr:Datum:Temp:Abs-Feuchte:Windchill:Wind:
Aussen-T/F 1401 28-11-2011 16:10:01 2.1 C 5.09 g/m*3 2.1 C 0 km/h
1402 28-11-2011 16:22:01 2 C 5.06 g/m*3 2 C 0 km/h
1403 28-11-2011 16:34:02 1.7 C 5.01 g/m*3 1.7 C 0 km/h
1404 28-11-2011 16:46:01 1.6 C 4.97 g/m*3 1.6 C 0 km/h
1405 28-11-2011 16:58:01 1.4 C 4.91 g/m*3 1.4 C 0 km/h
1406 28-11-2011 17:10:02 1.2 C 4.84 g/m*3 1.2 C 0 km/h
1407 28-11-2011 17:22:01 1 C 4.78 g/m*3 1 C 0 km/h
1408 28-11-2011 17:34:02 0.7 C 4.68 g/m*3 0.7 C 0 km/h
1409 28-11-2011 17:46:01 0.5 C 4.61 g/m*3 0.5 C 0 km/h
1410 28-11-2011 17:58:01 0.4 C 4.58 g/m*3 0.4 C 0 km/h
1411 28-11-2011 18:10:02 0.4 C 4.63 g/m*3 0.4 C 0 km/h
1412 28-11-2011 18:22:01 0.3 C 4.55 g/m*3 0.3 C 0 km/h
1413 28-11-2011 18:34:01 0.3 C 4.6 g/m*3 0.3 C 0 km/h
1414 28-11-2011 18:46:01 0.1 C 4.54 g/m*3 0.1 C 0 km/h
1415 28-11-2011 18:58:01 0 C 4.51 g/m*3 0 C 0 km/h
1416 28-11-2011 19:10:01 -0.1 C 4.47 g/m*3 -0.1 C 0 km/h
1417 28-11-2011 19:22:02 0 C 4.51 g/m*3 0 C 0 km/h
1418 28-11-2011 19:34:01 0 C 4.51 g/m*3 0 C 0 km/h
1419 28-11-2011 19:46:02 -0.3 C 4.41 g/m*3 -0.3 C 0 km/h
1420 28-11-2011 19:58:02 -0.5 C 4.35 g/m*3 -0.5 C 0 km/h
1421 28-11-2011 20:10:01 -0.5 C 4.35 g/m*3 -0.5 C 0 km/h
1422 28-11-2011 20:22:02 -0.6 C 4.32 g/m*3 -0.6 C 0 km/h
1423 28-11-2011 20:34:01 -0.6 C 4.32 g/m*3 -0.6 C 0 km/h
1424 28-11-2011 20:46:02 -0.6 C 4.32 g/m*3 -0.6 C 0 km/h
1425 28-11-2011 20:58:02 -0.5 C 4.35 g/m*3 -0.5 C 0 km/h
Sensor: Nr:Datum:Temp:Abs-Feuchte:Windchill:Wind:
Aussen-T/F 1426 28-11-2011 21:10:01 -0.6 C 4.32 g/m*3 -0.6 C 0 km/h
1427 28-11-2011 21:22:01 -0.6 C 4.32 g/m*3 -0.6 C 0 km/h
1428 28-11-2011 21:34:02 -0.7 C 4.29 g/m*3 -0.7 C 0 km/h
1429 28-11-2011 21:46:01 -0.9 C 4.23 g/m*3 -0.9 C 0 km/h
1430 28-11-2011 21:58:01 -1 C 4.2 g/m*3 -1 C 0 km/h
1431 28-11-2011 22:10:01 -1 C 4.2 g/m*3 -1 C 0 km/h
1432 28-11-2011 22:22:01 -1.1 C 4.17 g/m*3 -1.1 C 0 km/h
1433 28-11-2011 22:34:02 -1 C 4.2 g/m*3 -1 C 0 km/h
1434 28-11-2011 22:46:01 -0.9 C 4.23 g/m*3 -0.9 C 0 km/h
1435 28-11-2011 22:58:01 -0.7 C 4.29 g/m*3 -0.7 C 0 km/h
1436 28-11-2011 23:10:02 -0.9 C 4.23 g/m*3 -0.9 C 0 km/h
1437 28-11-2011 23:22:01 -0.9 C 4.23 g/m*3 -0.9 C 0 km/h
1438 28-11-2011 23:34:01 -0.9 C 4.23 g/m*3 -0.9 C 0 km/h
1439 28-11-2011 23:46:01 -0.7 C 4.34 g/m*3 -0.7 C 0 km/h
1440 28-11-2011 23:58:01 -0.9 C 4.28 g/m*3 -0.9 C 0 km/h
1441 29-11-2011 00:10:01 -0.8 C 4.31 g/m*3 -0.8 C 0 km/h
1442 29-11-2011 00:22:01 -0.6 C 4.37 g/m*3 -0.6 C 0 km/h
1443 29-11-2011 00:34:01 -0.7 C 4.34 g/m*3 -0.7 C 0 km/h
1444 29-11-2011 00:46:01 -0.7 C 4.34 g/m*3 -0.7 C 0 km/h
1445 29-11-2011 00:58:01 -0.9 C 4.28 g/m*3 -0.9 C 0 km/h
1446 29-11-2011 01:10:01 -1.1 C 4.22 g/m*3 -1.1 C 0 km/h
1447 29-11-2011 01:22:02 -1.2 C 4.19 g/m*3 -1.2 C 0 km/h
1448 29-11-2011 01:34:01 -1.2 C 4.19 g/m*3 -1.2 C 0 km/h
1449 29-11-2011 01:46:02 -1.3 C 4.16 g/m*3 -1.3 C 0 km/h
1450 29-11-2011 01:58:02 -1.2 C 4.19 g/m*3 -1.2 C 0 km/h
Sensor: Nr:Datum:Temp:Abs-Feuchte:Windchill:Wind:
Aussen-T/F 1451 29-11-2011 02:10:01 -1.2 C 4.19 g/m*3 -1.2 C 0 km/h
1452 29-11-2011 02:22:01 -1.3 C 4.16 g/m*3 -1.3 C 0 km/h
1453 29-11-2011 02:34:02 -1.2 C 4.19 g/m*3 -1.2 C 0 km/h
1454 29-11-2011 02:47:05 -1.3 C 4.16 g/m*3 -1.3 C 0 km/h
1455 29-11-2011 02:59:05 -1.2 C 4.19 g/m*3 -1.2 C 0 km/h
1456 29-11-2011 03:11:04 -1.2 C 4.19 g/m*3 -1.2 C 0 km/h
1457 29-11-2011 03:23:04 -1.1 C 4.22 g/m*3 -1.1 C 0 km/h
1458 29-11-2011 03:35:02 -1 C 4.25 g/m*3 -1 C 0 km/h
1459 29-11-2011 03:47:02 -0.7 C 4.34 g/m*3 -0.7 C 0 km/h
1460 29-11-2011 03:59:02 -0.8 C 4.31 g/m*3 -0.8 C 0 km/h
1461 29-11-2011 04:11:01 -0.7 C 4.34 g/m*3 -0.7 C 0 km/h
1462 29-11-2011 04:23:02 -0.5 C 4.4 g/m*3 -0.5 C 0 km/h
1463 29-11-2011 04:35:02 -0.4 C 4.43 g/m*3 -0.4 C 0 km/h
1464 29-11-2011 04:47:02 -0.3 C 4.46 g/m*3 -0.3 C 0 km/h
1465 29-11-2011 04:59:02 -0.2 C 4.49 g/m*3 -0.2 C 0 km/h
1466 29-11-2011 05:11:02 -0.2 C 4.49 g/m*3 -0.2 C 0 km/h
1467 29-11-2011 05:23:02 0 C 4.55 g/m*3 0 C 0 km/h
1468 29-11-2011 05:35:02 0.1 C 4.59 g/m*3 0.1 C 0 km/h
1469 29-11-2011 05:47:01 0.1 C 4.59 g/m*3 0.1 C 0 km/h
1470 29-11-2011 05:59:01 0.3 C 4.65 g/m*3 0.3 C 0 km/h
1471 29-11-2011 06:11:02 0.3 C 4.65 g/m*3 0.3 C 0 km/h
1472 29-11-2011 06:23:01 0.3 C 4.7 g/m*3 0.3 C 0 km/h
1473 29-11-2011 06:35:02 0.5 C 4.76 g/m*3 0.5 C 0 km/h
1474 29-11-2011 06:47:02 0.6 C 4.8 g/m*3 0.6 C 0 km/h
1475 29-11-2011 06:59:02 0.6 C 4.8 g/m*3 0.6 C 0 km/h
Sensor: Nr:Datum:Temp:Abs-Feuchte:Windchill:Wind:
Aussen-T/F 1476 29-11-2011 07:11:02 0.6 C 4.8 g/m*3 0.6 C 0 km/h
1477 29-11-2011 07:23:02 0.7 C 4.83 g/m*3 0.7 C 0 km/h
1478 29-11-2011 07:35:02 0.5 C 4.76 g/m*3 0.5 C 0 km/h
1479 29-11-2011 07:47:01 0.3 C 4.65 g/m*3 0.3 C 0 km/h
1480 29-11-2011 07:59:01 0.4 C 4.68 g/m*3 0.4 C 0 km/h
1481 29-11-2011 08:11:01 -0.4 C 4.43 g/m*3 -0.4 C 0 km/h
1482 29-11-2011 08:23:02 -0.7 C 4.34 g/m*3 -0.7 C 0 km/h
1483 29-11-2011 08:35:01 -0.2 C 4.49 g/m*3 -0.2 C 0 km/h
1484 29-11-2011 08:47:03 0.7 C 4.78 g/m*3 0.7 C 0 km/h
1485 29-11-2011 08:59:03 1.4 C 5.01 g/m*3 1.4 C 0 km/h
1486 29-11-2011 09:11:02 1.5 C 5.05 g/m*3 1.5 C 0 km/h
1487 29-11-2011 09:23:02 1.5 C 5.05 g/m*3 1.5 C 0 km/h
1488 29-11-2011 09:35:02 1.8 C 5.21 g/m*3 1.8 C 0 km/h
1489 29-11-2011 09:47:02 2 C 5.22 g/m*3 2 C 0 km/h
1490 29-11-2011 09:59:02 2.3 C 5.33 g/m*3 2.3 C 0 km/h
1491 29-11-2011 10:11:02 3.2 C 5.66 g/m*3 3.2 C 0 km/h
1492 29-11-2011 10:23:02 3.7 C 5.86 g/m*3 3.7 C 0 km/h
1493 29-11-2011 10:35:01 3.8 C 5.83 g/m*3 3.8 C 0 km/h
1494 29-11-2011 10:47:02 3.6 C 5.76 g/m*3 3.6 C 0 km/h
1495 29-11-2011 10:59:03 3.6 C 5.69 g/m*3 3.6 C 0 km/h
1496 29-11-2011 11:11:01 3.4 C 5.56 g/m*3 3.4 C 0 km/h
1497 29-11-2011 11:23:01 3.8 C 5.71 g/m*3 3.8 C 0 km/h
1498 29-11-2011 11:35:02 3.7 C 5.48 g/m*3 3.7 C 0 km/h
1499 29-11-2011 11:47:02 4.1 C 5.5 g/m*3 4.1 C 0 km/h
1500 29-11-2011 11:59:02 4.3 C 5.51 g/m*3 4.3 C 0 km/h
Sensor: Nr:Datum:Temp:Abs-Feuchte:Windchill:Wind:
Aussen-T/F 1501 29-11-2011 12:11:02 4.6 C 5.43 g/m*3 4.6 C 0 km/h
1502 29-11-2011 12:23:02 5.2 C 5.37 g/m*3 5.2 C 0 km/h
1503 29-11-2011 12:35:02 5.5 C 5.34 g/m*3 5.5 C 0 km/h
1504 29-11-2011 12:47:02 5.4 C 5.09 g/m*3 5.4 C 0 km/h
1505 29-11-2011 12:59:03 5.6 C 5.09 g/m*3 5.6 C 0 km/h
1506 29-11-2011 13:11:01 5.9 C 5.19 g/m*3 5.9 C 0 km/h
1507 29-11-2011 13:23:01 6.2 C 5.07 g/m*3 6.2 C 0 km/h
1508 29-11-2011 13:35:02 6.2 C 5 g/m*3 6.2 C 0 km/h
1509 29-11-2011 13:47:02 5.9 C 5.05 g/m*3 5.9 C 0 km/h
1510 29-11-2011 13:59:02 5.9 C 5.19 g/m*3 5.9 C 0 km/h
1511 29-11-2011 14:11:02 6.4 C 5.14 g/m*3 6.4 C 0 km/h
1512 29-11-2011 14:23:01 6.5 C 5.02 g/m*3 6.5 C 0 km/h
1513 29-11-2011 14:35:02 6.4 C 5.07 g/m*3 6.4 C 0 km/h
1514 29-11-2011 14:47:02 6 C 5.01 g/m*3 6 C 0 km/h
1515 29-11-2011 14:59:02 5.3 C 5.06 g/m*3 5.3 C 0 km/h
1516 29-11-2011 15:11:02 4.9 C 5.2 g/m*3 4.9 C 0 km/h
1517 29-11-2011 15:23:01 4.4 C 5.22 g/m*3 4.4 C 0 km/h
1518 29-11-2011 15:35:02 4.2 C 5.22 g/m*3 4.2 C 0 km/h
1519 29-11-2011 15:47:02 3.8 C 5.21 g/m*3 3.8 C 0 km/h
1520 29-11-2011 15:59:02 3.2 C 5.06 g/m*3 3.2 C 0 km/h
1521 29-11-2011 16:11:02 2.9 C 5.08 g/m*3 2.9 C 0 km/h
1522 29-11-2011 16:23:02 2.4 C 4.97 g/m*3 2.4 C 0 km/h
1523 29-11-2011 16:35:02 2.3 C 4.99 g/m*3 2.3 C 0 km/h
1524 29-11-2011 16:47:02 2.2 C 4.96 g/m*3 2.2 C 0 km/h
1525 29-11-2011 16:59:02 2 C 4.95 g/m*3 2 C 0 km/h
Sensor: Nr:Datum:Temp:Abs-Feuchte:Windchill:Wind:
Aussen-T/F 1526 29-11-2011 17:11:02 1.6 C 4.81 g/m*3 1.6 C 0 km/h
1527 29-11-2011 17:23:02 1.6 C 4.87 g/m*3 1.6 C 0 km/h
1528 29-11-2011 17:35:01 1.6 C 4.87 g/m*3 1.6 C 0 km/h
1529 29-11-2011 17:47:02 1.4 C 4.8 g/m*3 1.4 C 0 km/h
1530 29-11-2011 17:59:02 1.4 C 4.8 g/m*3 1.4 C 0 km/h
1531 29-11-2011 18:11:01 1.3 C 4.82 g/m*3 1.3 C 0 km/h
1532 29-11-2011 18:23:01 1.6 C 4.92 g/m*3 1.6 C 0 km/h
1533 29-11-2011 18:35:02 1.7 C 4.95 g/m*3 1.7 C 0 km/h
1534 29-11-2011 18:47:02 1.3 C 4.87 g/m*3 1.3 C 0 km/h
1535 29-11-2011 18:59:02 1.1 C 4.76 g/m*3 1.1 C 0 km/h
1536 29-11-2011 19:11:01 1.6 C 4.97 g/m*3 1.6 C 0 km/h
1537 29-11-2011 19:23:02 1.5 C 4.94 g/m*3 1.5 C 0 km/h
1538 29-11-2011 19:35:02 1.3 C 4.87 g/m*3 1.3 C 0 km/h
1539 29-11-2011 19:47:01 1.3 C 4.87 g/m*3 1.3 C 0 km/h
1540 29-11-2011 19:59:01 2 C 5.11 g/m*3 2 C 0 km/h
1541 29-11-2011 20:11:02 2 C 5.11 g/m*3 2 C 0 km/h
1542 29-11-2011 20:23:01 2.1 C 5.15 g/m*3 2.1 C 0 km/h
1543 29-11-2011 20:35:01 2.3 C 5.27 g/m*3 2.3 C 0 km/h
1544 29-11-2011 20:47:01 2.3 C 5.27 g/m*3 2.3 C 0 km/h
1545 29-11-2011 20:59:01 1.9 C 5.13 g/m*3 1.9 C 0 km/h
1546 29-11-2011 21:11:02 1.7 C 5.06 g/m*3 1.7 C 0 km/h
1547 29-11-2011 21:23:01 1.6 C 5.03 g/m*3 1.6 C 0 km/h
1548 29-11-2011 21:35:01 2.1 C 5.2 g/m*3 2.1 C 0 km/h
1549 29-11-2011 21:47:02 2.6 C 5.38 g/m*3 2.6 C 0 km/h
1550 29-11-2011 21:59:02 2.1 C 5.2 g/m*3 2.1 C 0 km/h
Sensor: Nr:Datum:Temp:Abs-Feuchte:Windchill:Wind:
Aussen-T/F 1551 29-11-2011 22:11:01 2.1 C 5.2 g/m*3 2.1 C 0 km/h
1552 29-11-2011 22:23:01 1.9 C 5.19 g/m*3 1.9 C 0 km/h
1553 29-11-2011 22:35:02 1.9 C 5.19 g/m*3 1.9 C 0 km/h
1554 29-11-2011 22:47:02 2.1 C 5.2 g/m*3 2.1 C 0 km/h
1555 29-11-2011 22:59:02 2.4 C 5.31 g/m*3 2.4 C 0 km/h
1556 29-11-2011 23:11:02 3.3 C 5.64 g/m*3 3.3 C 0 km/h
1557 29-11-2011 23:23:02 3.4 C 5.68 g/m*3 3.4 C 0 km/h
1558 29-11-2011 23:35:02 5.1 C 6.36 g/m*3 5.1 C 0 km/h
1559 29-11-2011 23:47:01 5.4 C 6.49 g/m*3 5.4 C 0 km/h
1560 29-11-2011 23:59:01 6.5 C 6.9 g/m*3 6.5 C 0 km/h
1561 30-11-2011 00:11:02 6.7 C 7.07 g/m*3 6.7 C 0 km/h
1562 30-11-2011 00:23:02 7 C 7.13 g/m*3 7 C 0 km/h
1563 30-11-2011 00:35:01 8.1 C 7.49 g/m*3 8.1 C 0 km/h
1564 30-11-2011 00:47:02 7.9 C 7.23 g/m*3 7.9 C 0 km/h
1565 30-11-2011 00:59:02 7.9 C 7.23 g/m*3 7.9 C 0 km/h
1566 30-11-2011 01:11:02 8.2 C 7.29 g/m*3 8.2 C 0 km/h
1567 30-11-2011 01:23:02 8.4 C 7.21 g/m*3 8.4 C 0 km/h
1568 30-11-2011 01:35:03 8.4 C 7.21 g/m*3 8.4 C 0 km/h
1569 30-11-2011 01:47:02 9 C 7.23 g/m*3 9 C 0 km/h
1570 30-11-2011 01:59:02 9.2 C 7.05 g/m*3 9.2 C 0 km/h
1571 30-11-2011 02:11:01 9.1 C 7.01 g/m*3 9.1 C 0 km/h
1572 30-11-2011 02:23:02 9.3 C 7.1 g/m*3 9.3 C 0 km/h
1573 30-11-2011 02:35:02 9.2 C 6.97 g/m*3 9.2 C 0 km/h
1574 30-11-2011 02:47:01 9.3 C 7.01 g/m*3 9.3 C 0 km/h
1575 30-11-2011 02:59:01 9.5 C 7.19 g/m*3 9.5 C 0 km/h
Sensor: Nr:Datum:Temp:Abs-Feuchte:Windchill:Wind:
Aussen-T/F 1576 30-11-2011 03:11:02 9.5 C 7.1 g/m*3 9.5 C 0 km/h
1577 30-11-2011 03:23:02 9.5 C 7.1 g/m*3 9.5 C 0 km/h
1578 30-11-2011 03:35:01 9.3 C 7.01 g/m*3 9.3 C 0 km/h
1579 30-11-2011 03:47:01 9.2 C 7.05 g/m*3 9.2 C 0 km/h
1580 30-11-2011 03:59:02 9 C 6.96 g/m*3 9 C 0 km/h
1581 30-11-2011 04:11:01 8.7 C 7.01 g/m*3 8.7 C 0 km/h
1582 30-11-2011 04:23:01 8.6 C 6.96 g/m*3 8.6 C 0 km/h
1583 30-11-2011 04:35:02 8.6 C 7.13 g/m*3 8.6 C 0 km/h
1584 30-11-2011 04:47:01 8.5 C 7.09 g/m*3 8.5 C 0 km/h
1585 30-11-2011 04:59:01 8.1 C 6.91 g/m*3 8.1 C 0 km/h
1586 30-11-2011 05:11:02 8.2 C 7.03 g/m*3 8.2 C 0 km/h
1587 30-11-2011 05:23:01 7.8 C 6.94 g/m*3 7.8 C 0 km/h
1588 30-11-2011 05:35:01 6.8 C 6.58 g/m*3 6.8 C 0 km/h
1589 30-11-2011 05:47:01 6.8 C 6.65 g/m*3 6.8 C 0 km/h
1590 30-11-2011 05:59:01 6.3 C 6.51 g/m*3 6.3 C 0 km/h
1591 30-11-2011 06:11:02 6.2 C 6.47 g/m*3 6.2 C 0 km/h
1592 30-11-2011 06:23:01 6 C 6.46 g/m*3 6 C 0 km/h
1593 30-11-2011 06:35:01 6 C 6.46 g/m*3 6 C 0 km/h
1594 30-11-2011 06:47:01 6 C 6.46 g/m*3 6 C 0 km/h
1595 30-11-2011 06:59:01 5.6 C 6.43 g/m*3 5.6 C 0 km/h
1596 30-11-2011 07:11:01 5.5 C 6.39 g/m*3 5.5 C 0 km/h
1597 30-11-2011 07:23:02 5.3 C 6.31 g/m*3 5.3 C 0 km/h
1598 30-11-2011 07:35:01 5.3 C 6.31 g/m*3 5.3 C 0 km/h
1599 30-11-2011 07:47:02 4.8 C 6.17 g/m*3 4.8 C 0 km/h
1600 30-11-2011 07:59:02 5 C 6.18 g/m*3 5 C 0 km/h
Sensor: Nr:Datum:Temp:Abs-Feuchte:Windchill:Wind:
Aussen-T/F 1601 30-11-2011 08:11:01 4.6 C 6.09 g/m*3 4.6 C 0 km/h
1602 30-11-2011 08:23:02 4.5 C 6.05 g/m*3 4.5 C 0 km/h
1603 30-11-2011 08:35:01 4 C 5.85 g/m*3 4 C 0 km/h
1604 30-11-2011 08:47:02 4.1 C 5.89 g/m*3 4.1 C 0 km/h
1605 30-11-2011 08:59:02 4.8 C 6.17 g/m*3 4.8 C 0 km/h
1606 30-11-2011 09:11:01 4.7 C 6.13 g/m*3 4.7 C 0 km/h
1607 30-11-2011 09:23:01 4.6 C 6.09 g/m*3 4.6 C 0 km/h
1608 30-11-2011 09:35:02 4 C 5.85 g/m*3 4 C 0 km/h
1609 30-11-2011 09:47:01 3.3 C 5.58 g/m*3 3.3 C 0 km/h
1610 30-11-2011 09:59:01 3.7 C 5.73 g/m*3 3.7 C 0 km/h
1611 30-11-2011 10:11:02 4 C 5.85 g/m*3 4 C 0 km/h
1612 30-11-2011 10:23:01 3.9 C 5.87 g/m*3 3.9 C 0 km/h
1613 30-11-2011 10:35:01 3.9 C 5.87 g/m*3 3.9 C 0 km/h
1614 30-11-2011 10:47:01 4.2 C 5.93 g/m*3 4.2 C 0 km/h
1615 30-11-2011 10:59:01 4.2 C 5.93 g/m*3 4.2 C 0 km/h
1616 30-11-2011 11:11:02 4.3 C 5.97 g/m*3 4.3 C 0 km/h
1617 30-11-2011 11:23:01 4.3 C 5.97 g/m*3 4.3 C 0 km/h
1618 30-11-2011 11:35:01 4.9 C 6.21 g/m*3 4.9 C 0 km/h
1619 30-11-2011 11:47:01 5.3 C 6.38 g/m*3 5.3 C 0 km/h
1620 30-11-2011 11:59:01 5.5 C 6.39 g/m*3 5.5 C 0 km/h
1621 30-11-2011 12:11:01 5.6 C 6.43 g/m*3 5.6 C 0 km/h
1622 30-11-2011 12:23:02 6.2 C 6.55 g/m*3 6.2 C 0 km/h
1623 30-11-2011 12:35:01 6.1 C 6.28 g/m*3 6.1 C 0 km/h
1624 30-11-2011 12:47:02 5.8 C 6.02 g/m*3 5.8 C 0 km/h
1625 30-11-2011 12:59:02 5.8 C 6.02 g/m*3 5.8 C 0 km/h
Sensor: Nr:Datum:Temp:Abs-Feuchte:Windchill:Wind:
Aussen-T/F 1626 30-11-2011 13:11:01 6.2 C 6.03 g/m*3 6.2 C 0 km/h
1627 30-11-2011 13:23:01 6.6 C 6.11 g/m*3 6.6 C 0 km/h
1628 30-11-2011 13:35:01 7 C 6.12 g/m*3 7 C 0 km/h
1629 30-11-2011 13:47:01 7.9 C 6.16 g/m*3 7.9 C 0 km/h
1630 30-11-2011 13:59:02 8.4 C 6.02 g/m*3 8.4 C 0 km/h
1631 30-11-2011 14:11:01 8.7 C 5.88 g/m*3 8.7 C 0 km/h
1632 30-11-2011 14:23:01 8.5 C 5.64 g/m*3 8.5 C 0 km/h
1633 30-11-2011 14:35:01 8.2 C 5.78 g/m*3 8.2 C 0 km/h
1634 30-11-2011 14:47:02 8.2 C 5.86 g/m*3 8.2 C 0 km/h
1635 30-11-2011 14:59:02 8.1 C 5.91 g/m*3 8.1 C 0 km/h
1636 30-11-2011 15:11:01 7.8 C 5.88 g/m*3 7.8 C 0 km/h
1637 30-11-2011 15:23:01 7.4 C 5.73 g/m*3 7.4 C 0 km/h
1638 30-11-2011 15:35:02 7.1 C 5.69 g/m*3 7.1 C 0 km/h
1639 30-11-2011 15:47:01 6.6 C 5.74 g/m*3 6.6 C 0 km/h
1640 30-11-2011 15:59:01 6.2 C 5.74 g/m*3 6.2 C 0 km/h
1641 30-11-2011 16:11:02 5.8 C 5.66 g/m*3 5.8 C 0 km/h
1642 30-11-2011 16:23:01 5.3 C 5.54 g/m*3 5.3 C 0 km/h
1643 30-11-2011 16:35:02 5.1 C 5.54 g/m*3 5.1 C 0 km/h
1644 30-11-2011 16:47:01 4.8 C 5.57 g/m*3 4.8 C 0 km/h
1645 30-11-2011 16:59:01 4.7 C 5.6 g/m*3 4.7 C 0 km/h
1646 30-11-2011 17:11:02 4.3 C 5.45 g/m*3 4.3 C 0 km/h
1647 30-11-2011 17:23:01 4.1 C 5.44 g/m*3 4.1 C 0 km/h
1648 30-11-2011 17:35:01 4.2 C 5.48 g/m*3 4.2 C 0 km/h
1649 30-11-2011 17:47:01 4.1 C 5.44 g/m*3 4.1 C 0 km/h
1650 30-11-2011 17:59:01 3.5 C 5.29 g/m*3 3.5 C 0 km/h
Sensor: Nr:Datum:Temp:Abs-Feuchte:Windchill:Wind:
Aussen-T/F 1651 30-11-2011 18:11:01 2.6 C 5.03 g/m*3 2.6 C 0 km/h
1652 30-11-2011 18:23:02 1.7 C 4.74 g/m*3 1.7 C 0 km/h
1653 30-11-2011 18:35:01 1.6 C 4.7 g/m*3 1.6 C 0 km/h
1654 30-11-2011 18:47:02 1.5 C 4.73 g/m*3 1.5 C 0 km/h
1655 30-11-2011 18:59:02 1.2 C 4.63 g/m*3 1.2 C 0 km/h
1656 30-11-2011 19:11:01 1 C 4.57 g/m*3 1 C 0 km/h
1657 30-11-2011 19:23:02 0.7 C 4.53 g/m*3 0.7 C 0 km/h
1658 30-11-2011 19:35:01 0.6 C 4.49 g/m*3 0.6 C 0 km/h
1659 30-11-2011 19:47:02 0.5 C 4.46 g/m*3 0.5 C 0 km/h
1660 30-11-2011 19:59:02 0.1 C 4.34 g/m*3 0.1 C 0 km/h
1661 30-11-2011 20:11:01 0 C 4.31 g/m*3 0 C 0 km/h
1662 30-11-2011 20:23:01 0 C 4.36 g/m*3 0 C 0 km/h
1663 30-11-2011 20:35:02 0.1 C 4.39 g/m*3 0.1 C 0 km/h
1664 30-11-2011 20:47:01 0 C 4.36 g/m*3 0 C 0 km/h
1665 30-11-2011 20:59:01 0.1 C 4.44 g/m*3 0.1 C 0 km/h
1666 30-11-2011 21:11:01 -0.5 C 4.26 g/m*3 -0.5 C 0 km/h
1667 30-11-2011 21:23:01 -0.5 C 4.26 g/m*3 -0.5 C 0 km/h
1668 30-11-2011 21:35:02 -0.7 C 4.2 g/m*3 -0.7 C 0 km/h
1669 30-11-2011 21:47:01 -0.6 C 4.23 g/m*3 -0.6 C 0 km/h
1670 30-11-2011 21:59:01 -0.9 C 4.14 g/m*3 -0.9 C 0 km/h
1671 30-11-2011 22:11:02 -0.6 C 4.23 g/m*3 -0.6 C 0 km/h
1672 30-11-2011 22:23:01 -0.9 C 4.14 g/m*3 -0.9 C 0 km/h
1673 30-11-2011 22:35:02 -0.7 C 4.25 g/m*3 -0.7 C 0 km/h
1674 30-11-2011 22:47:01 0.1 C 4.49 g/m*3 0.1 C 0 km/h
1675 30-11-2011 22:59:01 -0.5 C 4.31 g/m*3 -0.5 C 0 km/h
Sensor: Nr:Datum:Temp:Abs-Feuchte:Windchill:Wind:
Aussen-T/F 1676 30-11-2011 23:11:02 -1.3 C 4.07 g/m*3 -1.3 C 0 km/h
1677 30-11-2011 23:23:01 -1.2 C 4.1 g/m*3 -1.2 C 0 km/h
1678 30-11-2011 23:35:01 -1.7 C 3.96 g/m*3 -1.7 C 0 km/h
1679 30-11-2011 23:47:01 -1.2 C 4.1 g/m*3 -1.2 C 0 km/h
1680 30-11-2011 23:59:01 -1.3 C 4.07 g/m*3 -1.3 C 0 km/h

Legende:
   Min
   Max


Maximal/Minimal-Werte vom 17.11.2011 - 30.11.2011

Sensor Min Max Avg
Temp
(Aussen-T/F)
-3 °C
25-11-2011  03:57:04
11.7 °C
20-11-2011  12:28:01
3.73 °C
Abs-Feuchte
(Aussen-T/F)
3.56 g/m*3
25-11-2011  05:33:04
7.49 g/m*3
30-11-2011  00:35:01
5.37 g/m*3
Windchill
(Aussen-T/F)
-3 C
25-11-2011  03:57:04
11.7 C
20-11-2011  12:28:01
3.73 C

Die Daten stammen von einer Davis Vantage Pro 2 Wetter-Station und werden unter Linux mit der Software wview2wettercgi und aufbereitet. Alle Angaben erfolgen ohne Gewähr für ihre Vollständigkeit oder Richtigkeit.
Kontakt: Rainer Krienke krienke@uni-koblenz.de . Meine Webseiten an der Uni Koblenz oder privat.
Version: $Revision: 0.78 $